Wetterdaten: Donnerstag, 06.01.2022
Datum Zeit Temp. Aussen Temp. o. S. Temp +5cm Feuchte Auss Luftdruck Regen Sonnenschein Regendauer Solar Windben Empfang
06.01.2022 00:00 3,6 C 2,8 C 1,1 C 97 % 1014,2 hPa 0,0 l/m 0 min 0 min 0 W/m 12,9 km/h (3 Bft) 95,74 %
06.01.2022 00:02 3,6 C 2,8 C 1,1 C 97 % 1014,1 hPa 0,0 l/m 0 min 0 min 0 W/m 3,2 km/h (1 Bft) 11,11 %
06.01.2022 00:04 3,6 C 2,8 C 1,1 C 97 % 1014,2 hPa 0,0 l/m 0 min 0 min 0 W/m 9,7 km/h (2 Bft) 82,76 %
06.01.2022 00:08 3,5 C 2,8 C 1,1 C 97 % 1014,3 hPa 0,0 l/m 0 min 0 min 0 W/m 9,7 km/h (2 Bft) 97,85 %
06.01.2022 00:10 3,5 C 2,8 C 1,1 C 97 % 1014,4 hPa 0,0 l/m 0 min 0 min 0 W/m 6,4 km/h (2 Bft) 97,87 %
06.01.2022 00:12 3,5 C 2,8 C 1,1 C 97 % 1014,3 hPa 0,0 l/m 0 min 0 min 0 W/m 12,9 km/h (3 Bft) 95,74 %
06.01.2022 00:14 3,5 C 2,8 C 1,1 C 97 % 1014,3 hPa 0,0 l/m 0 min 0 min 0 W/m 6,4 km/h (2 Bft) 97,87 %
06.01.2022 00:16 3,5 C 2,8 C 1,1 C 97 % 1014,4 hPa 0,0 l/m 0 min 0 min 0 W/m 9,7 km/h (2 Bft) 97,87 %
06.01.2022 00:18 3,5 C 2,8 C 1,1 C 97 % 1014,4 hPa 0,0 l/m 0 min 0 min 0 W/m 12,9 km/h (3 Bft) 97,83 %
06.01.2022 00:20 3,4 C 2,8 C 1,1 C 97 % 1014,5 hPa 0,0 l/m 0 min 0 min 0 W/m 6,4 km/h (2 Bft) 97,87 %
06.01.2022 00:22 3,4 C 2,8 C 1,1 C 97 % 1014,4 hPa 0,0 l/m 0 min 0 min 0 W/m 9,7 km/h (2 Bft) 97,87 %
06.01.2022 00:24 3,4 C 2,8 C 1,1 C 97 % 1014,5 hPa 0,0 l/m 0 min 0 min 0 W/m 9,7 km/h (2 Bft) 97,87 %
06.01.2022 00:26 3,4 C 2,8 C 1,1 C 97 % 1014,5 hPa 0,0 l/m 0 min 0 min 0 W/m 12,9 km/h (3 Bft) 97,87 %
06.01.2022 00:28 3,4 C 2,8 C 1,1 C 97 % 1014,5 hPa 0,0 l/m 0 min 0 min 0 W/m 9,7 km/h (2 Bft) 100,00 %
06.01.2022 00:30 3,4 C 2,8 C 1,1 C 97 % 1014,6 hPa 0,0 l/m 0 min 0 min 0 W/m 6,4 km/h (2 Bft) 100,00 %
06.01.2022 00:32 3,3 C 2,8 C 1,1 C 97 % 1014,6 hPa 0,0 l/m 0 min 0 min 0 W/m 6,4 km/h (2 Bft) 100,00 %
06.01.2022 00:34 3,3 C 2,8 C 1,1 C 97 % 1014,6 hPa 0,0 l/m 0 min 0 min 0 W/m 9,7 km/h (2 Bft) 100,00 %
06.01.2022 00:36 3,3 C 2,8 C 1,1 C 97 % 1014,6 hPa 0,0 l/m 0 min 0 min 0 W/m 12,9 km/h (3 Bft) 100,00 %
06.01.2022 00:38 3,3 C 2,8 C 1,1 C 97 % 1014,6 hPa 0,0 l/m 0 min 0 min 0 W/m 6,4 km/h (2 Bft) 100,00 %
06.01.2022 00:40 3,3 C 2,2 C 1,1 C 97 % 1014,7 hPa 0,0 l/m 0 min 0 min 0 W/m 9,7 km/h (2 Bft) 100,00 %
06.01.2022 00:42 3,2 C 2,2 C 1,1 C 97 % 1014,7 hPa 0,0 l/m 0 min 0 min 0 W/m 9,7 km/h (2 Bft) 87,23 %
06.01.2022 00:44 3,2 C 2,2 C 1,1 C 97 % 1014,7 hPa 0,0 l/m 0 min 0 min 0 W/m 6,4 km/h (2 Bft) 70,21 %
06.01.2022 00:46 3,2 C 2,2 C 1,1 C 97 % 1014,7 hPa 0,0 l/m 0 min 0 min 0 W/m 16,1 km/h (3 Bft) 97,87 %
06.01.2022 00:48 3,2 C 2,2 C 1,1 C 97 % 1014,7 hPa 0,0 l/m 0 min 0 min 0 W/m 9,7 km/h (2 Bft) 100,00 %
06.01.2022 00:50 3,2 C 2,2 C 1,1 C 97 % 1014,8 hPa 0,0 l/m 0 min 0 min 0 W/m 12,9 km/h (3 Bft) 100,00 %
06.01.2022 00:52 3,2 C 2,2 C 1,1 C 98 % 1014,8 hPa 0,0 l/m 0 min 0 min 0 W/m 6,4 km/h (2 Bft) 100,00 %
06.01.2022 00:54 3,2 C 2,2 C 1,1 C 98 % 1014,7 hPa 0,0 l/m 0 min 0 min 0 W/m 6,4 km/h (2 Bft) 100,00 %
06.01.2022 00:56 3,2 C 2,2 C 1,1 C 98 % 1014,8 hPa 0,0 l/m 0 min 0 min 0 W/m 6,4 km/h (2 Bft) 97,87 %
06.01.2022 00:58 3,2 C 2,2 C 1,1 C 98 % 1014,8 hPa 0,0 l/m 0 min 0 min 0 W/m 6,4 km/h (2 Bft) 100,00 %
06.01.2022 01:00 3,1 C 2,2 C 1,1 C 98 % 1014,8 hPa 0,0 l/m 0 min 0 min 0 W/m 6,4 km/h (2 Bft) 97,87 %
06.01.2022 01:02 3,1 C 2,2 C 1,1 C 98 % 1014,8 hPa 0,0 l/m 0 min 0 min 0 W/m 6,4 km/h (2 Bft) 97,87 %
06.01.2022 01:04 3,1 C 2,2 C 1,1 C 98 % 1014,8 hPa 0,0 l/m 0 min 0 min 0 W/m 6,4 km/h (2 Bft) 97,83 %
06.01.2022 01:06 3,1 C 2,2 C 1,1 C 98 % 1014,8 hPa 0,0 l/m 0 min 0 min 0 W/m 6,4 km/h (2 Bft) 97,87 %
06.01.2022 01:08 3,1 C 2,2 C 1,1 C 97 % 1014,8 hPa 0,0 l/m 0 min 0 min 0 W/m 3,2 km/h (1 Bft) 95,74 %
06.01.2022 01:10 3,1 C 2,2 C 1,1 C 98 % 1014,8 hPa 0,0 l/m 0 min 0 min 0 W/m 12,9 km/h (3 Bft) 97,87 %
06.01.2022 01:12 3,1 C 2,2 C 1,1 C 97 % 1014,9 hPa 0,0 l/m 0 min 0 min 0 W/m 6,4 km/h (2 Bft) 97,87 %
06.01.2022 01:14 3,1 C 2,2 C 1,1 C 98 % 1014,9 hPa 0,0 l/m 0 min 0 min 0 W/m 6,4 km/h (2 Bft) 93,62 %
06.01.2022 01:16 3,1 C 2,2 C 1,1 C 97 % 1014,9 hPa 0,0 l/m 0 min 0 min 0 W/m 3,2 km/h (1 Bft) 97,83 %
06.01.2022 01:18 3,1 C 2,2 C 1,1 C 97 % 1015,0 hPa 0,0 l/m 0 min 0 min 0 W/m 6,4 km/h (2 Bft) 100,00 %
06.01.2022 01:20 3,1 C 2,2 C 1,1 C 97 % 1015,0 hPa 0,0 l/m 0 min 0 min 0 W/m 6,4 km/h (2 Bft) 97,87 %
06.01.2022 01:22 3,0 C 2,2 C 1,1 C 97 % 1014,9 hPa 0,0 l/m 0 min 0 min 0 W/m 6,4 km/h (2 Bft) 97,87 %
06.01.2022 01:24 3,0 C 2,2 C 1,1 C 97 % 1015,0 hPa 0,0 l/m 0 min 0 min 0 W/m 12,9 km/h (3 Bft) 97,87 %
06.01.2022 01:26 3,0 C 2,2 C 1,1 C 97 % 1015,0 hPa 0,0 l/m 0 min 0 min 0 W/m 6,4 km/h (2 Bft) 97,87 %
06.01.2022 01:28 3,0 C 2,2 C 1,1 C 98 % 1015,0 hPa 0,0 l/m 0 min 0 min 0 W/m 6,4 km/h (2 Bft) 97,83 %
06.01.2022 01:30 3,0 C 2,2 C 1,1 C 98 % 1015,0 hPa 0,0 l/m 0 min 0 min 0 W/m 6,4 km/h (2 Bft) 97,87 %
06.01.2022 01:32 3,0 C 2,2 C 1,1 C 98 % 1015,0 hPa 0,0 l/m 0 min 0 min 0 W/m 16,1 km/h (3 Bft) 95,74 %
06.01.2022 01:34 2,9 C 2,2 C 1,1 C 98 % 1015,1 hPa 0,0 l/m 0 min 0 min 0 W/m 12,9 km/h (3 Bft) 95,74 %
06.01.2022 01:36 2,9 C 2,2 C 1,1 C 98 % 1015,2 hPa 0,0 l/m 0 min 0 min 0 W/m 6,4 km/h (2 Bft) 51,16 %
06.01.2022 01:38 2,9 C 2,2 C 1,1 C 98 % 1015,2 hPa 0,0 l/m 0 min 0 min 0 W/m 6,4 km/h (2 Bft) 91,11 %
06.01.2022 01:40 2,9 C 2,2 C 1,1 C 98 % 1015,2 hPa 0,0 l/m 0 min 0 min 0 W/m 6,4 km/h (2 Bft) 95,65 %
06.01.2022 01:42 2,9 C 2,2 C 1,1 C 98 % 1015,2 hPa 0,0 l/m 0 min 0 min 0 W/m 6,4 km/h (2 Bft) 97,87 %
06.01.2022 01:44 2,9 C 2,2 C 1,1 C 98 % 1015,3 hPa 0,0 l/m 0 min 0 min 0 W/m 9,7 km/h (2 Bft) 95,74 %
06.01.2022 01:46 2,9 C 2,2 C 1,1 C 98 % 1015,3 hPa 0,0 l/m 0 min 0 min 0 W/m 9,7 km/h (2 Bft) 95,74 %
06.01.2022 01:48 2,9 C 2,2 C 0,6 C 98 % 1015,3 hPa 0,0 l/m 0 min 0 min 0 W/m 9,7 km/h (2 Bft) 95,74 %
06.01.2022 01:50 2,8 C 2,2 C 0,6 C 98 % 1015,3 hPa 0,0 l/m 0 min 0 min 0 W/m 6,4 km/h (2 Bft) 91,49 %
06.01.2022 01:52 2,8 C 2,2 C 0,6 C 98 % 1015,3 hPa 0,0 l/m 0 min 0 min 0 W/m 6,4 km/h (2 Bft) 95,65 %
06.01.2022 01:54 2,8 C 2,2 C 0,6 C 98 % 1015,4 hPa 0,0 l/m 0 min 0 min 0 W/m 6,4 km/h (2 Bft) 95,74 %
06.01.2022 01:56 2,8 C 2,2 C 0,6 C 98 % 1015,4 hPa 0,0 l/m 0 min 0 min 0 W/m 6,4 km/h (2 Bft) 95,74 %
06.01.2022 01:58 2,8 C 2,2 C 0,6 C 98 % 1015,4 hPa 0,0 l/m 0 min 0 min 0 W/m 6,4 km/h (2 Bft) 95,74 %
06.01.2022 02:00 2,8 C 2,2 C 0,6 C 98 % 1015,4 hPa 0,0 l/m 0 min 0 min 0 W/m 6,4 km/h (2 Bft) 95,74 %
06.01.2022 02:02 2,7 C 2,2 C 0,6 C 97 % 1015,3 hPa 0,0 l/m 0 min 0 min 0 W/m 6,4 km/h (2 Bft) 93,75 %
06.01.2022 02:04 2,7 C 2,2 C 0,6 C 97 % 1015,3 hPa 0,0 l/m 0 min 0 min 0 W/m 9,7 km/h (2 Bft) 95,65 %
06.01.2022 02:06 2,7 C 2,2 C 0,6 C 97 % 1015,2 hPa 0,0 l/m 0 min 0 min 0 W/m 6,4 km/h (2 Bft) 95,74 %
06.01.2022 02:08 2,7 C 1,7 C 0,6 C 97 % 1015,3 hPa 0,0 l/m 0 min 0 min 0 W/m 3,2 km/h (1 Bft) 93,62 %
06.01.2022 02:10 2,6 C 2,2 C 0,6 C 97 % 1015,3 hPa 0,0 l/m 0 min 0 min 0 W/m 6,4 km/h (2 Bft) 95,74 %
06.01.2022 02:12 2,6 C 2,2 C 0,6 C 97 % 1015,3 hPa 0,0 l/m 0 min 0 min 0 W/m 9,7 km/h (2 Bft) 95,74 %
06.01.2022 02:14 2,6 C 2,2 C 0,6 C 97 % 1015,4 hPa 0,0 l/m 0 min 0 min 0 W/m 9,7 km/h (2 Bft) 95,65 %
06.01.2022 02:16 2,6 C 2,2 C 0,6 C 97 % 1015,5 hPa 0,0 l/m 0 min 0 min 0 W/m 12,9 km/h (3 Bft) 95,74 %
06.01.2022 02:18 2,6 C 1,7 C 0,6 C 97 % 1015,4 hPa 0,0 l/m 0 min 0 min 0 W/m 9,7 km/h (2 Bft) 97,87 %
06.01.2022 02:20 2,6 C 1,7 C 0,6 C 97 % 1015,4 hPa 0,0 l/m 0 min 0 min 0 W/m 9,7 km/h (2 Bft) 97,87 %
06.01.2022 02:22 2,6 C 1,7 C 0,6 C 97 % 1015,5 hPa 0,0 l/m 0 min 0 min 0 W/m 6,4 km/h (2 Bft) 97,87 %
06.01.2022 02:24 2,6 C 1,7 C 0,6 C 98 % 1015,4 hPa 0,0 l/m 0 min 0 min 0 W/m 9,7 km/h (2 Bft) 95,74 %
06.01.2022 02:26 2,6 C 1,7 C 0,6 C 98 % 1015,4 hPa 0,0 l/m 0 min 0 min 0 W/m 12,9 km/h (3 Bft) 95,65 %
06.01.2022 02:28 2,5 C 1,7 C 0,6 C 98 % 1015,5 hPa 0,0 l/m 0 min 0 min 0 W/m 6,4 km/h (2 Bft) 97,44 %
06.01.2022 02:30 2,5 C 1,7 C 0,6 C 98 % 1015,5 hPa 0,0 l/m 0 min 0 min 0 W/m 9,7 km/h (2 Bft) 97,83 %
06.01.2022 02:32 2,5 C 1,7 C 0,6 C 98 % 1015,5 hPa 0,0 l/m 0 min 0 min 0 W/m 9,7 km/h (2 Bft) 97,87 %
06.01.2022 02:34 2,5 C 1,7 C 0,6 C 98 % 1015,5 hPa 0,0 l/m 0 min 0 min 0 W/m 9,7 km/h (2 Bft) 97,87 %
06.01.2022 02:36 2,4 C 1,7 C 0,6 C 98 % 1015,5 hPa 0,0 l/m 0 min 0 min 0 W/m 9,7 km/h (2 Bft) 97,87 %
06.01.2022 02:38 2,4 C 1,7 C 0,6 C 98 % 1015,5 hPa 0,0 l/m 0 min 0 min 0 W/m 6,4 km/h (2 Bft) 100,00 %
06.01.2022 02:40 2,4 C 1,7 C 0,6 C 98 % 1015,5 hPa 0,0 l/m 0 min 0 min 0 W/m 6,4 km/h (2 Bft) 97,83 %
06.01.2022 02:42 2,4 C 1,7 C 0,6 C 97 % 1015,5 hPa 0,0 l/m 0 min 0 min 0 W/m 6,4 km/h (2 Bft) 100,00 %
06.01.2022 02:44 2,3 C 1,7 C 0,6 C 97 % 1015,5 hPa 0,0 l/m 0 min 0 min 0 W/m 9,7 km/h (2 Bft) 100,00 %
06.01.2022 02:46 2,3 C 1,7 C 0,6 C 97 % 1015,6 hPa 0,0 l/m 0 min 0 min 0 W/m 6,4 km/h (2 Bft) 100,00 %
06.01.2022 02:48 2,3 C 1,7 C 0,6 C 97 % 1015,6 hPa 0,0 l/m 0 min 0 min 0 W/m 6,4 km/h (2 Bft) 97,87 %
06.01.2022 02:50 2,3 C 1,7 C 0,6 C 97 % 1015,6 hPa 0,0 l/m 0 min 0 min 0 W/m 6,4 km/h (2 Bft) 100,00 %
06.01.2022 02:52 2,3 C 1,7 C 0,6 C 97 % 1015,6 hPa 0,0 l/m 0 min 0 min 0 W/m 9,7 km/h (2 Bft) 100,00 %
06.01.2022 02:54 2,2 C 1,7 C 0,6 C 97 % 1015,7 hPa 0,0 l/m 0 min 0 min 0 W/m 6,4 km/h (2 Bft) 100,00 %
06.01.2022 02:56 2,2 C 1,7 C 0,6 C 97 % 1015,7 hPa 0,0 l/m 0 min 0 min 0 W/m 6,4 km/h (2 Bft) 100,00 %
06.01.2022 02:58 2,2 C 1,7 C 0,6 C 97 % 1015,7 hPa 0,0 l/m 0 min 0 min 0 W/m 6,4 km/h (2 Bft) 97,87 %
06.01.2022 03:00 2,2 C 1,1 C 0,6 C 97 % 1015,8 hPa 0,0 l/m 0 min 0 min 0 W/m 6,4 km/h (2 Bft) 100,00 %
06.01.2022 03:02 2,2 C 1,7 C 0,6 C 97 % 1015,8 hPa 0,0 l/m 0 min 0 min 0 W/m 6,4 km/h (2 Bft) 97,87 %
06.01.2022 03:04 2,2 C 1,7 C 0,6 C 97 % 1015,7 hPa 0,0 l/m 0 min 0 min 0 W/m 6,4 km/h (2 Bft) 97,83 %
06.01.2022 03:06 2,1 C 1,1 C 0,0 C 97 % 1015,8 hPa 0,0 l/m 0 min 0 min 0 W/m 6,4 km/h (2 Bft) 97,87 %
06.01.2022 03:08 2,1 C 1,1 C 0,6 C 97 % 1015,8 hPa 0,0 l/m 0 min 0 min 0 W/m 6,4 km/h (2 Bft) 95,74 %
06.01.2022 03:10 2,1 C 1,1 C 0,0 C 97 % 1015,8 hPa 0,0 l/m 0 min 0 min 0 W/m 3,2 km/h (1 Bft) 100,00 %
06.01.2022 03:12 2,1 C 1,1 C 0,0 C 97 % 1015,8 hPa 0,0 l/m 0 min 0 min 0 W/m 6,4 km/h (2 Bft) 100,00 %
06.01.2022 03:14 2,1 C 1,1 C 0,0 C 97 % 1015,8 hPa 0,0 l/m 0 min 0 min 0 W/m 6,4 km/h (2 Bft) 97,87 %
06.01.2022 03:16 2,1 C 1,1 C 0,0 C 97 % 1015,8 hPa 0,0 l/m 0 min 0 min 0 W/m 3,2 km/h (1 Bft) 97,83 %
06.01.2022 03:18 2,1 C 1,1 C 0,0 C 97 % 1015,8 hPa 0,0 l/m 0 min 0 min 0 W/m 6,4 km/h (2 Bft) 97,87 %
06.01.2022 03:20 2,1 C 1,7 C 0,0 C 97 % 1015,8 hPa 0,0 l/m 0 min 0 min 0 W/m 6,4 km/h (2 Bft) 100,00 %
06.01.2022 03:22 2,1 C 1,7 C 0,6 C 97 % 1015,9 hPa 0,0 l/m 0 min 0 min 0 W/m 9,7 km/h (2 Bft) 95,74 %
06.01.2022 03:24 2,1 C 1,7 C 0,6 C 97 % 1015,8 hPa 0,0 l/m 0 min 0 min 0 W/m 9,7 km/h (2 Bft) 97,87 %
06.01.2022 03:26 2,1 C 1,7 C 0,6 C 97 % 1015,9 hPa 0,0 l/m 0 min 0 min 0 W/m 9,7 km/h (2 Bft) 97,87 %
06.01.2022 03:28 2,1 C 1,7 C 0,6 C 97 % 1015,9 hPa 0,0 l/m 0 min 0 min 0 W/m 6,4 km/h (2 Bft) 97,83 %
06.01.2022 03:30 2,1 C 1,7 C 0,6 C 97 % 1015,9 hPa 0,0 l/m 0 min 0 min 0 W/m 9,7 km/h (2 Bft) 95,74 %
06.01.2022 03:32 2,1 C 1,7 C 0,6 C 97 % 1015,9 hPa 0,0 l/m 0 min 0 min 0 W/m 6,4 km/h (2 Bft) 95,74 %
06.01.2022 03:34 2,1 C 1,7 C 0,6 C 97 % 1015,9 hPa 0,0 l/m 0 min 0 min 0 W/m 6,4 km/h (2 Bft) 93,62 %
06.01.2022 03:36 2,1 C 1,7 C 0,6 C 97 % 1016,0 hPa 0,0 l/m 0 min 0 min 0 W/m 9,7 km/h (2 Bft) 95,74 %
06.01.2022 03:38 2,1 C 1,7 C 0,6 C 97 % 1016,0 hPa 0,0 l/m 0 min 0 min 0 W/m 9,7 km/h (2 Bft) 95,74 %
06.01.2022 03:40 2,2 C 1,7 C 0,6 C 97 % 1016,0 hPa 0,0 l/m 0 min 0 min 0 W/m 6,4 km/h (2 Bft) 95,65 %
06.01.2022 03:42 2,2 C 1,7 C 0,6 C 97 % 1016,1 hPa 0,0 l/m 0 min 0 min 0 W/m 6,4 km/h (2 Bft) 95,74 %
06.01.2022 03:44 2,2 C 1,7 C 0,6 C 97 % 1016,1 hPa 0,0 l/m 0 min 0 min 0 W/m 6,4 km/h (2 Bft) 95,74 %
06.01.2022 03:46 2,2 C 1,7 C 0,6 C 98 % 1016,1 hPa 0,0 l/m 0 min 0 min 0 W/m 9,7 km/h (2 Bft) 95,74 %
06.01.2022 03:48 2,2 C 1,7 C 0,6 C 97 % 1016,0 hPa 0,0 l/m 0 min 0 min 0 W/m 12,9 km/h (3 Bft) 95,74 %
06.01.2022 03:50 2,2 C 1,7 C 0,6 C 97 % 1016,1 hPa 0,0 l/m 0 min 0 min 0 W/m 6,4 km/h (2 Bft) 93,62 %
06.01.2022 03:52 2,2 C 1,7 C 0,6 C 97 % 1016,1 hPa 0,0 l/m 0 min 0 min 0 W/m 6,4 km/h (2 Bft) 95,65 %
06.01.2022 03:54 2,2 C 1,7 C 0,6 C 97 % 1016,2 hPa 0,0 l/m 0 min 0 min 0 W/m 6,4 km/h (2 Bft) 95,74 %
06.01.2022 03:56 2,2 C 1,7 C 0,6 C 97 % 1016,1 hPa 0,0 l/m 0 min 0 min 0 W/m 3,2 km/h (1 Bft) 95,74 %
06.01.2022 03:58 2,2 C 1,7 C 0,6 C 97 % 1016,1 hPa 0,0 l/m 0 min 0 min 0 W/m 6,4 km/h (2 Bft) 93,62 %
06.01.2022 04:00 2,2 C 1,7 C 0,6 C 97 % 1016,1 hPa 0,0 l/m 0 min 0 min 0 W/m 9,7 km/h (2 Bft) 97,87 %
06.01.2022 04:05 2,2 C 1,7 C 0,6 C 97 % 1016,2 hPa 0,0 l/m 0 min 0 min 0 W/m 9,7 km/h (2 Bft) 100,00 %
06.01.2022 04:06 2,2 C 1,7 C 0,6 C 97 % 1016,2 hPa 0,0 l/m 0 min 0 min 0 W/m 3,2 km/h (1 Bft) 91,67 %
06.01.2022 04:08 2,1 C 1,7 C 0,6 C 97 % 1016,2 hPa 0,0 l/m 0 min 0 min 0 W/m 6,4 km/h (2 Bft) 100,00 %
06.01.2022 04:10 2,1 C 1,7 C 0,6 C 97 % 1016,2 hPa 0,0 l/m 0 min 0 min 0 W/m 6,4 km/h (2 Bft) 100,00 %
06.01.2022 04:12 2,1 C 1,1 C 0,6 C 97 % 1016,2 hPa 0,0 l/m 0 min 0 min 0 W/m 3,2 km/h (1 Bft) 100,00 %
06.01.2022 04:14 2,1 C 1,1 C 0,6 C 97 % 1016,2 hPa 0,2 l/m 0 min 0 min 0 W/m 6,4 km/h (2 Bft) 100,00 %
06.01.2022 04:16 2,1 C 1,1 C 0,6 C 97 % 1016,2 hPa 0,0 l/m 0 min 0 min 0 W/m 6,4 km/h (2 Bft) 97,83 %
06.01.2022 04:18 2,1 C 1,1 C 0,0 C 97 % 1016,2 hPa 0,0 l/m 0 min 0 min 0 W/m 3,2 km/h (1 Bft) 97,87 %
06.01.2022 04:20 2,1 C 1,1 C 0,6 C 97 % 1016,2 hPa 0,0 l/m 0 min 0 min 0 W/m 6,4 km/h (2 Bft) 100,00 %
06.01.2022 04:22 2,1 C 1,1 C 0,6 C 97 % 1016,2 hPa 0,0 l/m 0 min 0 min 0 W/m 6,4 km/h (2 Bft) 100,00 %
06.01.2022 04:24 2,1 C 1,1 C 0,6 C 97 % 1016,3 hPa 0,0 l/m 0 min 0 min 0 W/m 6,4 km/h (2 Bft) 100,00 %
06.01.2022 04:26 2,1 C 1,1 C 0,6 C 97 % 1016,3 hPa 0,0 l/m 0 min 0 min 0 W/m 6,4 km/h (2 Bft) 100,00 %
06.01.2022 04:28 2,0 C 1,1 C 0,6 C 97 % 1016,3 hPa 0,0 l/m 0 min 0 min 0 W/m 9,7 km/h (2 Bft) 100,00 %
06.01.2022 04:30 2,0 C 1,1 C 0,6 C 97 % 1016,3 hPa 0,0 l/m 0 min 0 min 0 W/m 6,4 km/h (2 Bft) 100,00 %
06.01.2022 04:32 2,0 C 1,1 C 0,6 C 97 % 1016,3 hPa 0,0 l/m 0 min 0 min 0 W/m 6,4 km/h (2 Bft) 97,87 %
06.01.2022 04:34 2,0 C 1,1 C 0,0 C 97 % 1016,3 hPa 0,0 l/m 0 min 0 min 0 W/m 9,7 km/h (2 Bft) 100,00 %
06.01.2022 04:36 2,0 C 1,1 C 0,0 C 97 % 1016,3 hPa 0,0 l/m 0 min 0 min 0 W/m 9,7 km/h (2 Bft) 100,00 %
06.01.2022 04:38 1,9 C 1,1 C 0,0 C 97 % 1016,3 hPa 0,0 l/m 0 min 0 min 0 W/m 6,4 km/h (2 Bft) 100,00 %
06.01.2022 04:40 1,9 C 1,1 C 0,0 C 97 % 1016,4 hPa 0,0 l/m 0 min 0 min 0 W/m 6,4 km/h (2 Bft) 100,00 %
06.01.2022 04:42 1,9 C 1,1 C 0,0 C 97 % 1016,4 hPa 0,0 l/m 0 min 0 min 0 W/m 6,4 km/h (2 Bft) 100,00 %
06.01.2022 04:44 1,9 C 1,1 C 0,0 C 97 % 1016,4 hPa 0,0 l/m 0 min 0 min 0 W/m 3,2 km/h (1 Bft) 100,00 %
06.01.2022 04:46 1,9 C 1,1 C 0,0 C 97 % 1016,5 hPa 0,0 l/m 0 min 0 min 0 W/m 3,2 km/h (1 Bft) 100,00 %
06.01.2022 04:48 1,9 C 1,1 C 0,0 C 97 % 1016,5 hPa 0,0 l/m 0 min 0 min 0 W/m 6,4 km/h (2 Bft) 97,87 %
06.01.2022 04:50 1,8 C 1,1 C 0,0 C 97 % 1016,5 hPa 0,0 l/m 0 min 0 min 0 W/m 6,4 km/h (2 Bft) 100,00 %
06.01.2022 04:52 1,8 C 1,1 C 0,0 C 97 % 1016,5 hPa 0,0 l/m 0 min 0 min 0 W/m 3,2 km/h (1 Bft) 100,00 %
06.01.2022 04:54 1,8 C 1,1 C 0,0 C 97 % 1016,5 hPa 0,0 l/m 0 min 0 min 0 W/m 6,4 km/h (2 Bft) 100,00 %
06.01.2022 04:56 1,8 C 1,1 C 0,0 C 97 % 1016,6 hPa 0,0 l/m 0 min 0 min 0 W/m 6,4 km/h (2 Bft) 100,00 %
06.01.2022 04:58 1,8 C 1,1 C 0,0 C 97 % 1016,6 hPa 0,0 l/m 0 min 0 min 0 W/m 6,4 km/h (2 Bft) 100,00 %
06.01.2022 05:00 1,8 C 1,1 C 0,0 C 97 % 1016,6 hPa 0,0 l/m 0 min 0 min 0 W/m 3,2 km/h (1 Bft) 100,00 %
06.01.2022 05:02 1,8 C 1,1 C 0,0 C 97 % 1016,7 hPa 0,0 l/m 0 min 0 min 0 W/m 6,4 km/h (2 Bft) 97,83 %
06.01.2022 05:04 1,8 C 1,1 C 0,0 C 97 % 1016,7 hPa 0,0 l/m 0 min 0 min 0 W/m 6,4 km/h (2 Bft) 97,87 %
06.01.2022 05:06 1,8 C 1,1 C 0,0 C 97 % 1016,6 hPa 0,0 l/m 0 min 0 min 0 W/m 6,4 km/h (2 Bft) 95,74 %
06.01.2022 05:08 1,8 C 1,1 C 0,0 C 97 % 1016,7 hPa 0,0 l/m 0 min 0 min 0 W/m 3,2 km/h (1 Bft) 97,87 %
06.01.2022 05:10 1,8 C 1,1 C 0,0 C 97 % 1016,6 hPa 0,0 l/m 0 min 0 min 0 W/m 6,4 km/h (2 Bft) 95,74 %
06.01.2022 05:12 1,7 C 1,1 C 0,0 C 97 % 1016,7 hPa 0,0 l/m 0 min 0 min 0 W/m 6,4 km/h (2 Bft) 97,87 %
06.01.2022 05:14 1,7 C 1,1 C 0,0 C 97 % 1016,7 hPa 0,0 l/m 0 min 0 min 0 W/m 6,4 km/h (2 Bft) 97,83 %
06.01.2022 05:16 1,7 C 1,1 C 0,0 C 97 % 1016,7 hPa 0,0 l/m 0 min 0 min 0 W/m 3,2 km/h (1 Bft) 95,74 %
06.01.2022 05:18 1,7 C 1,1 C 0,0 C 97 % 1016,7 hPa 0,0 l/m 0 min 0 min 0 W/m 6,4 km/h (2 Bft) 95,74 %
06.01.2022 05:20 1,7 C 1,1 C 0,0 C 97 % 1016,7 hPa 0,0 l/m 0 min 0 min 0 W/m 9,7 km/h (2 Bft) 93,62 %
06.01.2022 05:22 1,7 C 1,1 C 0,0 C 97 % 1016,7 hPa 0,0 l/m 0 min 0 min 0 W/m 6,4 km/h (2 Bft) 93,62 %
06.01.2022 05:24 1,7 C 1,1 C 0,0 C 97 % 1016,8 hPa 0,0 l/m 0 min 0 min 0 W/m 6,4 km/h (2 Bft) 95,74 %
06.01.2022 05:26 1,7 C 1,1 C 0,0 C 97 % 1016,8 hPa 0,0 l/m 0 min 0 min 0 W/m 6,4 km/h (2 Bft) 95,65 %
06.01.2022 05:28 1,7 C 1,1 C 0,0 C 97 % 1016,8 hPa 0,0 l/m 0 min 0 min 0 W/m 6,4 km/h (2 Bft) 95,74 %
06.01.2022 05:30 1,7 C 1,1 C 0,0 C 97 % 1016,8 hPa 0,0 l/m 0 min 0 min 0 W/m 6,4 km/h (2 Bft) 95,74 %
06.01.2022 05:32 1,7 C 1,1 C 0,0 C 97 % 1016,8 hPa 0,0 l/m 0 min 0 min 0 W/m 3,2 km/h (1 Bft) 93,62 %
06.01.2022 05:34 1,6 C 1,1 C 0,0 C 97 % 1016,8 hPa 0,0 l/m 0 min 0 min 0 W/m 6,4 km/h (2 Bft) 95,74 %
06.01.2022 05:36 1,6 C 1,1 C 0,0 C 97 % 1016,8 hPa 0,0 l/m 0 min 0 min 0 W/m 6,4 km/h (2 Bft) 96,15 %
06.01.2022 05:38 1,6 C 1,1 C 0,0 C 97 % 1016,8 hPa 0,0 l/m 0 min 0 min 0 W/m 3,2 km/h (1 Bft) 91,49 %
06.01.2022 05:40 1,6 C 0,6 C 0,0 C 97 % 1016,9 hPa 0,0 l/m 0 min 0 min 0 W/m 3,2 km/h (1 Bft) 93,62 %
06.01.2022 05:42 1,6 C 0,6 C 0,0 C 97 % 1016,9 hPa 0,0 l/m 0 min 0 min 0 W/m 6,4 km/h (2 Bft) 91,49 %
06.01.2022 05:44 1,6 C 0,6 C 0,0 C 97 % 1016,9 hPa 0,0 l/m 0 min 0 min 0 W/m 3,2 km/h (1 Bft) 92,00 %
06.01.2022 05:46 1,6 C 0,6 C 0,0 C 97 % 1017,0 hPa 0,0 l/m 0 min 0 min 0 W/m 3,2 km/h (1 Bft) 91,30 %
06.01.2022 05:48 1,6 C 0,6 C -0,6 C 97 % 1017,1 hPa 0,0 l/m 0 min 0 min 0 W/m 3,2 km/h (1 Bft) 95,74 %
06.01.2022 05:50 1,6 C 0,6 C -0,6 C 97 % 1017,1 hPa 0,0 l/m 0 min 0 min 0 W/m 3,2 km/h (1 Bft) 95,74 %
06.01.2022 05:52 1,5 C 0,6 C -0,6 C 97 % 1017,1 hPa 0,0 l/m 0 min 0 min 0 W/m 3,2 km/h (1 Bft) 95,74 %
06.01.2022 05:54 1,5 C 0,6 C -0,6 C 97 % 1017,1 hPa 0,0 l/m 0 min 0 min 0 W/m 3,2 km/h (1 Bft) 91,49 %
06.01.2022 05:56 1,4 C 0,6 C -0,6 C 97 % 1017,1 hPa 0,0 l/m 0 min 0 min 0 W/m 6,4 km/h (2 Bft) 89,36 %
06.01.2022 05:58 1,4 C 0,6 C -0,6 C 97 % 1017,1 hPa 0,0 l/m 0 min 0 min 0 W/m 3,2 km/h (1 Bft) 97,83 %
06.01.2022 06:00 1,4 C 0,6 C -0,6 C 97 % 1017,1 hPa 0,0 l/m 0 min 0 min 0 W/m 6,4 km/h (2 Bft) 97,87 %
06.01.2022 06:02 1,4 C 0,6 C -0,6 C 97 % 1017,1 hPa 0,0 l/m 0 min 0 min 0 W/m 3,2 km/h (1 Bft) 95,74 %
06.01.2022 06:04 1,4 C 0,6 C -0,6 C 97 % 1017,2 hPa 0,0 l/m 0 min 0 min 0 W/m 6,4 km/h (2 Bft) 95,74 %
06.01.2022 06:06 1,4 C 0,6 C -0,6 C 97 % 1017,2 hPa 0,0 l/m 0 min 0 min 0 W/m 6,4 km/h (2 Bft) 91,49 %
06.01.2022 06:08 1,4 C 0,6 C -0,6 C 97 % 1017,2 hPa 0,0 l/m 0 min 0 min 0 W/m 3,2 km/h (1 Bft) 93,62 %
06.01.2022 06:10 1,3 C 0,6 C -0,6 C 97 % 1017,2 hPa 0,0 l/m 0 min 0 min 0 W/m 3,2 km/h (1 Bft) 97,83 %
06.01.2022 06:12 1,3 C 0,6 C -0,6 C 97 % 1017,2 hPa 0,0 l/m 0 min 0 min 0 W/m 3,2 km/h (1 Bft) 95,74 %
06.01.2022 06:14 1,3 C 0,6 C -0,6 C 97 % 1017,2 hPa 0,0 l/m 0 min 0 min 0 W/m 3,2 km/h (1 Bft) 95,74 %
06.01.2022 06:16 1,3 C 0,6 C -0,6 C 97 % 1017,2 hPa 0,0 l/m 0 min 0 min 0 W/m 6,4 km/h (2 Bft) 100,00 %
06.01.2022 06:18 1,3 C 0,6 C -0,6 C 97 % 1017,3 hPa 0,0 l/m 0 min 0 min 0 W/m 3,2 km/h (1 Bft) 100,00 %
06.01.2022 06:20 1,3 C 0,6 C -0,6 C 97 % 1017,3 hPa 0,0 l/m 0 min 0 min 0 W/m 3,2 km/h (1 Bft) 100,00 %
06.01.2022 06:22 1,3 C 0,6 C -0,6 C 97 % 1017,3 hPa 0,0 l/m 0 min 0 min 0 W/m 6,4 km/h (2 Bft) 100,00 %
06.01.2022 06:24 1,3 C 0,6 C -0,6 C 97 % 1017,3 hPa 0,0 l/m 0 min 0 min 0 W/m 6,4 km/h (2 Bft) 100,00 %
06.01.2022 06:26 1,3 C 0,6 C -0,6 C 97 % 1017,3 hPa 0,0 l/m 0 min 0 min 0 W/m 3,2 km/h (1 Bft) 100,00 %
06.01.2022 06:28 1,3 C 0,6 C -0,6 C 97 % 1017,3 hPa 0,0 l/m 0 min 0 min 0 W/m 6,4 km/h (2 Bft) 65,96 %
06.01.2022 06:30 1,3 C 0,6 C -0,6 C 97 % 1017,3 hPa 0,0 l/m 0 min 0 min 0 W/m 9,7 km/h (2 Bft) 90,00 %
06.01.2022 06:32 1,3 C 0,6 C -0,6 C 97 % 1017,3 hPa 0,0 l/m 0 min 0 min 0 W/m 3,2 km/h (1 Bft) 100,00 %
06.01.2022 06:34 1,3 C 0,6 C -0,6 C 97 % 1017,3 hPa 0,0 l/m 0 min 0 min 0 W/m 3,2 km/h (1 Bft) 100,00 %
06.01.2022 06:36 1,3 C 0,6 C -0,6 C 97 % 1017,4 hPa 0,0 l/m 0 min 0 min 0 W/m 6,4 km/h (2 Bft) 97,87 %
06.01.2022 06:38 1,3 C 0,6 C -0,6 C 97 % 1017,4 hPa 0,0 l/m 0 min 0 min 0 W/m 3,2 km/h (1 Bft) 100,00 %
06.01.2022 06:40 1,3 C 0,6 C -0,6 C 97 % 1017,4 hPa 0,0 l/m 0 min 0 min 0 W/m 9,7 km/h (2 Bft) 97,87 %
06.01.2022 06:42 1,3 C 0,6 C -0,6 C 97 % 1017,5 hPa 0,0 l/m 0 min 0 min 0 W/m 6,4 km/h (2 Bft) 100,00 %
06.01.2022 06:44 1,2 C 0,6 C -0,6 C 97 % 1017,5 hPa 0,0 l/m 0 min 0 min 0 W/m 3,2 km/h (1 Bft) 100,00 %
06.01.2022 06:46 1,2 C 0,6 C -0,6 C 97 % 1017,5 hPa 0,0 l/m 0 min 0 min 0 W/m 3,2 km/h (1 Bft) 100,00 %
06.01.2022 06:48 1,2 C 0,6 C -0,6 C 97 % 1017,5 hPa 0,0 l/m 0 min 0 min 0 W/m 3,2 km/h (1 Bft) 97,87 %
06.01.2022 06:50 1,2 C 0,6 C -0,6 C 97 % 1017,6 hPa 0,0 l/m 0 min 0 min 0 W/m 6,4 km/h (2 Bft) 100,00 %
06.01.2022 06:52 1,2 C 0,6 C -0,6 C 97 % 1017,6 hPa 0,0 l/m 0 min 0 min 0 W/m 3,2 km/h (1 Bft) 100,00 %
06.01.2022 06:54 1,2 C 0,6 C -0,6 C 97 % 1017,6 hPa 0,0 l/m 0 min 0 min 0 W/m 3,2 km/h (1 Bft) 97,87 %
06.01.2022 06:56 1,2 C 0,0 C -0,6 C 97 % 1017,6 hPa 0,0 l/m 0 min 0 min 0 W/m 3,2 km/h (1 Bft) 100,00 %
06.01.2022 06:58 1,1 C 0,6 C -0,6 C 97 % 1017,6 hPa 0,0 l/m 0 min 0 min 0 W/m 6,4 km/h (2 Bft) 100,00 %
06.01.2022 07:00 1,1 C 0,6 C -0,6 C 97 % 1017,7 hPa 0,0 l/m 0 min 0 min 0 W/m 3,2 km/h (1 Bft) 97,87 %
06.01.2022 07:02 1,1 C 0,0 C -0,6 C 97 % 1017,7 hPa 0,0 l/m 0 min 0 min 0 W/m 3,2 km/h (1 Bft) 97,87 %
06.01.2022 07:04 1,1 C 0,6 C -0,6 C 97 % 1017,7 hPa 0,0 l/m 0 min 0 min 0 W/m 3,2 km/h (1 Bft) 97,87 %
06.01.2022 07:06 1,1 C 0,6 C -0,6 C 97 % 1017,8 hPa 0,0 l/m 0 min 0 min 0 W/m 6,4 km/h (2 Bft) 97,87 %
06.01.2022 07:08 1,1 C 0,6 C -0,6 C 97 % 1017,8 hPa 0,0 l/m 0 min 0 min 0 W/m 6,4 km/h (2 Bft) 97,83 %
06.01.2022 07:10 1,1 C 0,6 C -0,6 C 97 % 1017,9 hPa 0,0 l/m 0 min 0 min 0 W/m 3,2 km/h (1 Bft) 97,87 %
06.01.2022 07:12 1,1 C 0,6 C -0,6 C 97 % 1017,8 hPa 0,0 l/m 0 min 0 min 0 W/m 3,2 km/h (1 Bft) 97,87 %
06.01.2022 07:14 1,1 C 0,6 C -0,6 C 97 % 1017,9 hPa 0,0 l/m 0 min 0 min 0 W/m 6,4 km/h (2 Bft) 97,87 %
06.01.2022 07:16 1,1 C 0,0 C -0,6 C 97 % 1017,9 hPa 0,0 l/m 0 min 0 min 0 W/m 3,2 km/h (1 Bft) 97,87 %
06.01.2022 07:18 1,1 C 0,0 C -0,6 C 97 % 1017,9 hPa 0,0 l/m 0 min 0 min 0 W/m 3,2 km/h (1 Bft) 97,87 %
06.01.2022 07:20 1,1 C 0,0 C -0,6 C 97 % 1017,9 hPa 0,0 l/m 0 min 0 min 0 W/m 3,2 km/h (1 Bft) 95,74 %
06.01.2022 07:22 1,1 C 0,0 C -0,6 C 97 % 1017,9 hPa 0,0 l/m 0 min 0 min 0 W/m 6,4 km/h (2 Bft) 97,83 %
06.01.2022 07:24 1,1 C 0,6 C -0,6 C 97 % 1017,9 hPa 0,0 l/m 0 min 0 min 0 W/m 3,2 km/h (1 Bft) 93,62 %
06.01.2022 07:26 1,0 C 0,0 C -0,6 C 97 % 1018,0 hPa 0,0 l/m 0 min 0 min 0 W/m 3,2 km/h (1 Bft) 95,74 %
06.01.2022 07:28 1,0 C 0,0 C -0,6 C 97 % 1018,0 hPa 0,0 l/m 0 min 0 min 0 W/m 3,2 km/h (1 Bft) 97,87 %
06.01.2022 07:30 1,0 C 0,0 C -0,6 C 97 % 1018,0 hPa 0,0 l/m 0 min 0 min 0 W/m 3,2 km/h (1 Bft) 100,00 %
06.01.2022 07:32 1,0 C 0,0 C -0,6 C 97 % 1018,1 hPa 0,0 l/m 0 min 0 min 0 W/m 3,2 km/h (1 Bft) 100,00 %
06.01.2022 07:34 1,0 C 0,0 C -0,6 C 97 % 1018,1 hPa 0,0 l/m 0 min 0 min 0 W/m 3,2 km/h (1 Bft) 100,00 %
06.01.2022 07:36 1,0 C 0,6 C -0,6 C 97 % 1018,0 hPa 0,0 l/m 0 min 0 min 0 W/m 3,2 km/h (1 Bft) 100,00 %
06.01.2022 07:38 1,0 C 0,6 C -0,6 C 97 % 1018,0 hPa 0,0 l/m 0 min 0 min 0 W/m 3,2 km/h (1 Bft) 100,00 %
06.01.2022 07:40 1,0 C 0,0 C -0,6 C 97 % 1018,0 hPa 0,0 l/m 0 min 0 min 0 W/m 3,2 km/h (1 Bft) 97,87 %
06.01.2022 07:42 0,9 C 0,0 C -0,6 C 97 % 1018,1 hPa 0,0 l/m 0 min 0 min 0 W/m 3,2 km/h (1 Bft) 100,00 %
06.01.2022 07:44 0,9 C 0,0 C -0,6 C 97 % 1018,1 hPa 0,0 l/m 0 min 0 min 0 W/m 3,2 km/h (1 Bft) 100,00 %
06.01.2022 07:46 0,9 C 0,0 C -0,6 C 97 % 1018,1 hPa 0,0 l/m 0 min 0 min 0 W/m 3,2 km/h (1 Bft) 97,87 %
06.01.2022 07:48 0,9 C 0,0 C -0,6 C 97 % 1018,2 hPa 0,0 l/m 0 min 0 min 0 W/m 3,2 km/h (1 Bft) 93,62 %
06.01.2022 07:50 0,9 C 0,0 C -1,1 C 97 % 1018,2 hPa 0,0 l/m 0 min 0 min 0 W/m 3,2 km/h (1 Bft) 97,87 %
06.01.2022 07:52 0,9 C 0,0 C -1,1 C 97 % 1018,3 hPa 0,0 l/m 0 min 0 min 0 W/m 3,2 km/h (1 Bft) 97,87 %
06.01.2022 07:54 0,8 C 0,0 C -1,1 C 97 % 1018,3 hPa 0,0 l/m 0 min 0 min 0 W/m 3,2 km/h (1 Bft) 97,87 %
06.01.2022 07:56 0,8 C 0,0 C -1,1 C 97 % 1018,3 hPa 0,0 l/m 0 min 0 min 0 W/m 6,4 km/h (2 Bft) 97,83 %
06.01.2022 07:58 0,8 C 0,0 C -1,1 C 97 % 1018,4 hPa 0,0 l/m 0 min 0 min 0 W/m 3,2 km/h (1 Bft) 95,74 %
06.01.2022 08:00 0,8 C 0,0 C -1,1 C 97 % 1018,4 hPa 0,0 l/m 0 min 0 min 0 W/m 6,4 km/h (2 Bft) 97,87 %
06.01.2022 08:02 0,8 C 0,0 C -1,1 C 97 % 1018,4 hPa 0,0 l/m 0 min 0 min 0 W/m 3,2 km/h (1 Bft) 97,87 %
06.01.2022 08:04 0,8 C 0,0 C -1,1 C 97 % 1018,5 hPa 0,0 l/m 0 min 0 min 0 W/m 3,2 km/h (1 Bft) 97,87 %
06.01.2022 08:06 0,8 C 0,0 C -1,1 C 97 % 1018,5 hPa 0,0 l/m 0 min 0 min 0 W/m 3,2 km/h (1 Bft) 95,74 %
06.01.2022 08:08 0,8 C 0,0 C -1,1 C 97 % 1018,5 hPa 0,0 l/m 0 min 0 min 0 W/m 3,2 km/h (1 Bft) 97,83 %
06.01.2022 08:10 0,8 C 0,0 C -1,1 C 97 % 1018,5 hPa 0,0 l/m 0 min 0 min 0 W/m 3,2 km/h (1 Bft) 97,87 %
06.01.2022 08:12 0,7 C 0,0 C -1,1 C 97 % 1018,6 hPa 0,0 l/m 0 min 0 min 0 W/m 3,2 km/h (1 Bft) 97,87 %
06.01.2022 08:14 0,7 C 0,0 C -1,1 C 97 % 1018,6 hPa 0,0 l/m 0 min 0 min 0 W/m 3,2 km/h (1 Bft) 95,74 %
06.01.2022 08:16 0,7 C 0,0 C -1,1 C 97 % 1018,6 hPa 0,0 l/m 0 min 0 min 0 W/m 3,2 km/h (1 Bft) 97,87 %
06.01.2022 08:18 0,7 C 0,0 C -1,1 C 97 % 1018,6 hPa 0,0 l/m 0 min 0 min 0 W/m 3,2 km/h (1 Bft) 97,87 %
06.01.2022 08:20 0,7 C 0,0 C -1,1 C 97 % 1018,6 hPa 0,0 l/m 0 min 0 min 0 W/m 3,2 km/h (1 Bft) 97,83 %
06.01.2022 08:22 0,7 C 0,0 C -1,1 C 97 % 1018,6 hPa 0,0 l/m 0 min 0 min 0 W/m 3,2 km/h (1 Bft) 97,87 %
06.01.2022 08:24 0,7 C 0,0 C -1,1 C 97 % 1018,7 hPa 0,0 l/m 0 min 0 min 0 W/m 3,2 km/h (1 Bft) 97,87 %
06.01.2022 08:26 0,7 C 0,0 C -1,1 C 97 % 1018,7 hPa 0,0 l/m 0 min 0 min 0 W/m 3,2 km/h (1 Bft) 97,87 %
06.01.2022 08:28 0,7 C 0,0 C -1,1 C 97 % 1018,7 hPa 0,0 l/m 0 min 0 min 0 W/m 6,4 km/h (2 Bft) 100,00 %
06.01.2022 08:30 0,7 C 0,0 C -1,1 C 97 % 1018,7 hPa 0,0 l/m 0 min 0 min 0 W/m 3,2 km/h (1 Bft) 97,83 %
06.01.2022 08:32 0,7 C 0,0 C -1,1 C 97 % 1018,7 hPa 0,0 l/m 0 min 0 min 0 W/m 3,2 km/h (1 Bft) 95,74 %
06.01.2022 08:34 0,7 C 0,0 C -1,1 C 97 % 1018,8 hPa 0,0 l/m 0 min 0 min 0 W/m 3,2 km/h (1 Bft) 97,87 %
06.01.2022 08:36 0,7 C 0,0 C -1,1 C 97 % 1018,8 hPa 0,0 l/m 0 min 0 min 0 W/m 3,2 km/h (1 Bft) 97,87 %
06.01.2022 08:38 0,7 C 0,0 C -1,1 C 97 % 1018,8 hPa 0,0 l/m 0 min 0 min 2 W/m 0,0 km/h (0 Bft) 97,37 %
06.01.2022 08:40 0,7 C 0,0 C -1,1 C 97 % 1018,8 hPa 0,0 l/m 0 min 0 min 5 W/m 0,0 km/h (0 Bft) 97,87 %
06.01.2022 08:42 0,7 C 0,0 C -1,1 C 97 % 1018,8 hPa 0,0 l/m 0 min 0 min 5 W/m 3,2 km/h (1 Bft) 97,87 %
06.01.2022 08:44 0,6 C 0,0 C -1,1 C 97 % 1018,9 hPa 0,0 l/m 0 min 0 min 5 W/m 3,2 km/h (1 Bft) 93,62 %
06.01.2022 08:46 0,6 C 0,0 C -1,1 C 97 % 1018,9 hPa 0,0 l/m 0 min 0 min 6 W/m 3,2 km/h (1 Bft) 93,48 %
06.01.2022 08:48 0,6 C 0,0 C -1,1 C 97 % 1019,0 hPa 0,0 l/m 0 min 0 min 7 W/m 0,0 km/h (0 Bft) 95,74 %
06.01.2022 08:50 0,6 C 0,0 C -1,1 C 97 % 1019,0 hPa 0,0 l/m 0 min 0 min 8 W/m 0,0 km/h (0 Bft) 93,62 %
06.01.2022 08:52 0,6 C 0,0 C -1,1 C 97 % 1019,1 hPa 0,0 l/m 0 min 0 min 9 W/m 3,2 km/h (1 Bft) 91,49 %
06.01.2022 08:54 0,6 C 0,0 C -1,1 C 97 % 1019,2 hPa 0,0 l/m 0 min 0 min 9 W/m 0,0 km/h (0 Bft) 95,74 %
06.01.2022 08:56 0,6 C 0,0 C -1,1 C 97 % 1019,2 hPa 0,0 l/m 0 min 0 min 11 W/m 3,2 km/h (1 Bft) 95,74 %
06.01.2022 08:58 0,6 C 0,0 C -1,1 C 97 % 1019,3 hPa 0,0 l/m 0 min 0 min 11 W/m 3,2 km/h (1 Bft) 93,48 %
06.01.2022 09:00 0,6 C 0,0 C -1,1 C 97 % 1019,2 hPa 0,0 l/m 0 min 0 min 12 W/m 0,0 km/h (0 Bft) 93,62 %
06.01.2022 09:02 0,6 C 0,0 C -1,1 C 97 % 1019,3 hPa 0,0 l/m 0 min 0 min 12 W/m 3,2 km/h (1 Bft) 95,74 %
06.01.2022 09:04 0,6 C 0,0 C -1,1 C 97 % 1019,3 hPa 0,0 l/m 0 min 0 min 14 W/m 3,2 km/h (1 Bft) 91,49 %
06.01.2022 09:06 0,6 C 0,0 C -1,1 C 97 % 1019,3 hPa 0,0 l/m 0 min 0 min 14 W/m 3,2 km/h (1 Bft) 95,74 %
06.01.2022 09:08 0,6 C 0,0 C -1,1 C 97 % 1019,4 hPa 0,0 l/m 0 min 0 min 14 W/m 3,2 km/h (1 Bft) 93,48 %
06.01.2022 09:10 0,6 C 0,0 C -1,1 C 97 % 1019,3 hPa 0,0 l/m 0 min 0 min 16 W/m 0,0 km/h (0 Bft) 95,74 %
06.01.2022 09:12 0,7 C 0,0 C -1,1 C 97 % 1019,4 hPa 0,0 l/m 0 min 0 min 16 W/m 3,2 km/h (1 Bft) 97,87 %
06.01.2022 09:14 0,7 C 0,0 C -1,1 C 97 % 1019,3 hPa 0,0 l/m 0 min 0 min 16 W/m 3,2 km/h (1 Bft) 97,87 %
06.01.2022 09:16 0,7 C 0,0 C -1,1 C 97 % 1019,3 hPa 0,0 l/m 0 min 0 min 16 W/m 0,0 km/h (0 Bft) 97,87 %
06.01.2022 09:18 0,7 C 0,0 C -1,1 C 97 % 1019,4 hPa 0,0 l/m 0 min 0 min 16 W/m 0,0 km/h (0 Bft) 98,11 %
06.01.2022 09:20 0,7 C 0,0 C -1,1 C 97 % 1019,3 hPa 0,0 l/m 0 min 0 min 18 W/m 0,0 km/h (0 Bft) 95,74 %
06.01.2022 09:22 0,8 C 0,0 C -0,6 C 97 % 1019,3 hPa 0,0 l/m 0 min 0 min 19 W/m 3,2 km/h (1 Bft) 91,49 %
06.01.2022 09:24 0,8 C 0,0 C -0,6 C 97 % 1019,4 hPa 0,0 l/m 0 min 0 min 20 W/m 3,2 km/h (1 Bft) 97,87 %
06.01.2022 09:26 0,8 C 0,0 C -0,6 C 97 % 1019,4 hPa 0,0 l/m 0 min 0 min 23 W/m 3,2 km/h (1 Bft) 100,00 %
06.01.2022 09:28 0,8 C 0,6 C -0,6 C 97 % 1019,4 hPa 0,0 l/m 0 min 0 min 26 W/m 3,2 km/h (1 Bft) 100,00 %
06.01.2022 09:30 0,8 C 0,6 C -0,6 C 98 % 1019,5 hPa 0,0 l/m 0 min 0 min 29 W/m 3,2 km/h (1 Bft) 100,00 %
06.01.2022 09:32 0,9 C 0,6 C -0,6 C 98 % 1019,5 hPa 0,0 l/m 0 min 0 min 28 W/m 3,2 km/h (1 Bft) 97,87 %
06.01.2022 09:34 0,9 C 0,6 C -0,6 C 98 % 1019,5 hPa 0,0 l/m 0 min 0 min 25 W/m 3,2 km/h (1 Bft) 100,00 %
06.01.2022 09:36 0,9 C 0,6 C -0,6 C 98 % 1019,5 hPa 0,0 l/m 0 min 0 min 22 W/m 0,0 km/h (0 Bft) 100,00 %
06.01.2022 09:38 0,9 C 0,6 C -0,6 C 98 % 1019,5 hPa 0,0 l/m 0 min 0 min 21 W/m 3,2 km/h (1 Bft) 100,00 %
06.01.2022 09:40 1,0 C 0,6 C -0,6 C 98 % 1019,6 hPa 0,0 l/m 0 min 0 min 23 W/m 3,2 km/h (1 Bft) 97,87 %
06.01.2022 09:42 1,0 C 0,6 C -0,6 C 98 % 1019,7 hPa 0,0 l/m 0 min 0 min 27 W/m 3,2 km/h (1 Bft) 100,00 %
06.01.2022 09:44 1,0 C 0,6 C -0,6 C 98 % 1019,7 hPa 0,0 l/m 0 min 0 min 35 W/m 0,0 km/h (0 Bft) 100,00 %
06.01.2022 09:46 1,1 C 0,6 C -0,6 C 98 % 1019,7 hPa 0,0 l/m 0 min 0 min 39 W/m 0,0 km/h (0 Bft) 100,00 %
06.01.2022 09:48 1,1 C 0,6 C -0,6 C 98 % 1019,7 hPa 0,0 l/m 0 min 0 min 40 W/m 3,2 km/h (1 Bft) 97,87 %
06.01.2022 09:50 1,1 C 1,1 C -0,6 C 98 % 1019,7 hPa 0,0 l/m 0 min 0 min 40 W/m 3,2 km/h (1 Bft) 100,00 %
06.01.2022 09:52 1,1 C 1,1 C -0,6 C 98 % 1019,6 hPa 0,0 l/m 0 min 0 min 42 W/m 3,2 km/h (1 Bft) 97,87 %
06.01.2022 09:54 1,1 C 1,1 C -0,6 C 98 % 1019,6 hPa 0,0 l/m 0 min 0 min 45 W/m 3,2 km/h (1 Bft) 100,00 %
06.01.2022 09:56 1,1 C 1,1 C -0,6 C 98 % 1019,6 hPa 0,0 l/m 0 min 0 min 50 W/m 3,2 km/h (1 Bft) 97,87 %
06.01.2022 09:58 1,1 C 1,1 C 0,0 C 98 % 1019,6 hPa 0,0 l/m 0 min 0 min 53 W/m 3,2 km/h (1 Bft) 97,87 %
06.01.2022 10:00 1,1 C 1,1 C 0,0 C 98 % 1019,7 hPa 0,0 l/m 0 min 0 min 60 W/m 3,2 km/h (1 Bft) 100,00 %
06.01.2022 10:02 1,2 C 1,1 C 0,0 C 98 % 1019,7 hPa 0,0 l/m 0 min 0 min 68 W/m 3,2 km/h (1 Bft) 97,87 %
06.01.2022 10:04 1,2 C 1,7 C 0,0 C 98 % 1019,7 hPa 0,0 l/m 0 min 0 min 74 W/m 3,2 km/h (1 Bft) 95,74 %
06.01.2022 10:06 1,3 C 1,7 C 0,0 C 98 % 1019,7 hPa 0,0 l/m 0 min 0 min 79 W/m 3,2 km/h (1 Bft) 97,83 %
06.01.2022 10:08 1,3 C 1,7 C 0,0 C 98 % 1019,7 hPa 0,0 l/m 0 min 0 min 83 W/m 6,4 km/h (2 Bft) 97,87 %
06.01.2022 10:10 1,3 C 1,7 C 0,0 C 98 % 1019,8 hPa 0,0 l/m 0 min 0 min 85 W/m 3,2 km/h (1 Bft) 97,87 %
06.01.2022 10:12 1,4 C 2,2 C 0,0 C 98 % 1019,8 hPa 0,0 l/m 0 min 0 min 88 W/m 6,4 km/h (2 Bft) 97,87 %
06.01.2022 10:14 1,4 C 2,2 C 0,6 C 98 % 1019,8 hPa 0,0 l/m 2 min 0 min 103 W/m 3,2 km/h (1 Bft) 95,74 %
06.01.2022 10:16 1,5 C 2,2 C 0,6 C 98 % 1019,8 hPa 0,0 l/m 2 min 0 min 124 W/m 3,2 km/h (1 Bft) 97,87 %
06.01.2022 10:18 1,6 C 2,2 C 0,6 C 98 % 1019,8 hPa 0,0 l/m 2 min 0 min 140 W/m 3,2 km/h (1 Bft) 97,83 %
06.01.2022 10:20 1,6 C 2,2 C 0,6 C 98 % 1019,8 hPa 0,0 l/m 2 min 0 min 138 W/m 3,2 km/h (1 Bft) 97,87 %
06.01.2022 10:22 1,7 C 2,2 C 0,6 C 98 % 1019,8 hPa 0,0 l/m 2 min 0 min 132 W/m 3,2 km/h (1 Bft) 97,87 %
06.01.2022 10:24 1,7 C 2,2 C 0,6 C 98 % 1019,9 hPa 0,0 l/m 2 min 0 min 127 W/m 3,2 km/h (1 Bft) 95,74 %
06.01.2022 10:26 1,8 C 2,2 C 0,6 C 98 % 1019,9 hPa 0,0 l/m 2 min 0 min 132 W/m 6,4 km/h (2 Bft) 97,87 %
06.01.2022 10:28 1,8 C 2,2 C 0,6 C 98 % 1019,8 hPa 0,0 l/m 2 min 0 min 132 W/m 3,2 km/h (1 Bft) 97,87 %
06.01.2022 10:30 1,9 C 2,2 C 0,6 C 98 % 1019,9 hPa 0,0 l/m 0 min 0 min 86 W/m 3,2 km/h (1 Bft) 97,83 %
06.01.2022 10:32 1,9 C 2,2 C 0,6 C 98 % 1019,8 hPa 0,0 l/m 0 min 0 min 77 W/m 3,2 km/h (1 Bft) 95,74 %
06.01.2022 10:34 2,0 C 2,2 C 0,6 C 98 % 1019,8 hPa 0,0 l/m 0 min 0 min 75 W/m 3,2 km/h (1 Bft) 95,74 %
06.01.2022 10:36 2,1 C 2,2 C 0,6 C 98 % 1019,9 hPa 0,0 l/m 0 min 0 min 70 W/m 6,4 km/h (2 Bft) 95,74 %
06.01.2022 10:38 2,1 C 2,2 C 0,6 C 98 % 1019,9 hPa 0,0 l/m 0 min 0 min 64 W/m 3,2 km/h (1 Bft) 95,74 %
06.01.2022 10:40 2,1 C 2,2 C 0,6 C 98 % 1019,9 hPa 0,0 l/m 0 min 0 min 59 W/m 6,4 km/h (2 Bft) 91,49 %
06.01.2022 10:42 2,1 C 2,2 C 0,6 C 98 % 1019,9 hPa 0,0 l/m 0 min 0 min 57 W/m 6,4 km/h (2 Bft) 95,65 %
06.01.2022 10:44 2,1 C 2,2 C 0,6 C 98 % 1019,9 hPa 0,0 l/m 0 min 0 min 75 W/m 6,4 km/h (2 Bft) 95,74 %
06.01.2022 10:46 2,1 C 2,2 C 0,6 C 98 % 1020,0 hPa 0,0 l/m 2 min 0 min 155 W/m 6,4 km/h (2 Bft) 95,74 %
06.01.2022 10:48 2,2 C 2,8 C 0,6 C 98 % 1020,0 hPa 0,0 l/m 2 min 0 min 193 W/m 3,2 km/h (1 Bft) 97,87 %
06.01.2022 10:50 2,2 C 2,8 C 0,6 C 98 % 1020,0 hPa 0,0 l/m 2 min 0 min 196 W/m 3,2 km/h (1 Bft) 97,87 %
06.01.2022 10:52 2,2 C 2,8 C 1,1 C 98 % 1020,0 hPa 0,0 l/m 2 min 0 min 192 W/m 6,4 km/h (2 Bft) 97,83 %
06.01.2022 10:54 2,3 C 2,8 C 1,1 C 98 % 1020,0 hPa 0,0 l/m 2 min 0 min 181 W/m 12,9 km/h (3 Bft) 97,87 %
06.01.2022 10:56 2,3 C 3,3 C 1,1 C 98 % 1020,1 hPa 0,0 l/m 2 min 0 min 209 W/m 6,4 km/h (2 Bft) 97,87 %
06.01.2022 10:58 2,3 C 3,3 C 1,1 C 98 % 1020,1 hPa 0,0 l/m 2 min 0 min 189 W/m 3,2 km/h (1 Bft) 95,74 %
06.01.2022 11:00 2,4 C 3,3 C 1,1 C 98 % 1020,1 hPa 0,0 l/m 0 min 0 min 123 W/m 6,4 km/h (2 Bft) 95,74 %
06.01.2022 11:02 2,4 C 2,8 C 1,1 C 98 % 1020,1 hPa 0,0 l/m 0 min 0 min 75 W/m 6,4 km/h (2 Bft) 95,74 %
06.01.2022 11:04 2,4 C 2,8 C 1,1 C 98 % 1020,1 hPa 0,0 l/m 0 min 0 min 59 W/m 3,2 km/h (1 Bft) 97,78 %
06.01.2022 11:06 2,4 C 2,8 C 1,1 C 98 % 1020,1 hPa 0,0 l/m 0 min 0 min 55 W/m 6,4 km/h (2 Bft) 95,74 %
06.01.2022 11:08 2,4 C 2,8 C 1,1 C 98 % 1020,1 hPa 0,0 l/m 0 min 0 min 49 W/m 3,2 km/h (1 Bft) 97,87 %
06.01.2022 11:10 2,4 C 2,2 C 1,1 C 98 % 1020,2 hPa 0,0 l/m 0 min 0 min 47 W/m 12,9 km/h (3 Bft) 95,74 %
06.01.2022 11:12 2,3 C 2,2 C 0,6 C 98 % 1020,1 hPa 0,0 l/m 0 min 0 min 47 W/m 3,2 km/h (1 Bft) 97,87 %
06.01.2022 11:14 2,3 C 2,2 C 0,6 C 98 % 1020,1 hPa 0,0 l/m 0 min 0 min 50 W/m 6,4 km/h (2 Bft) 100,00 %
06.01.2022 11:16 2,3 C 2,2 C 0,6 C 98 % 1020,1 hPa 0,0 l/m 0 min 0 min 51 W/m 6,4 km/h (2 Bft) 100,00 %
06.01.2022 11:18 2,3 C 2,2 C 0,6 C 98 % 1020,1 hPa 0,0 l/m 0 min 0 min 53 W/m 6,4 km/h (2 Bft) 100,00 %
06.01.2022 11:20 2,3 C 2,2 C 0,6 C 98 % 1020,1 hPa 0,0 l/m 0 min 0 min 79 W/m 3,2 km/h (1 Bft) 100,00 %
06.01.2022 11:22 2,3 C 2,8 C 0,6 C 98 % 1020,1 hPa 0,0 l/m 0 min 0 min 99 W/m 3,2 km/h (1 Bft) 97,87 %
06.01.2022 11:24 2,3 C 2,8 C 0,6 C 98 % 1020,1 hPa 0,0 l/m 0 min 0 min 90 W/m 3,2 km/h (1 Bft) 95,74 %
06.01.2022 11:26 2,3 C 2,8 C 1,1 C 98 % 1020,1 hPa 0,0 l/m 0 min 0 min 90 W/m 6,4 km/h (2 Bft) 97,87 %
06.01.2022 11:28 2,3 C 2,8 C 1,1 C 98 % 1020,1 hPa 0,0 l/m 0 min 0 min 95 W/m 6,4 km/h (2 Bft) 97,83 %
06.01.2022 11:30 2,4 C 2,8 C 1,1 C 98 % 1020,1 hPa 0,0 l/m 0 min 0 min 110 W/m 3,2 km/h (1 Bft) 97,87 %
06.01.2022 11:32 2,4 C 2,8 C 1,1 C 98 % 1020,1 hPa 0,0 l/m 0 min 0 min 103 W/m 3,2 km/h (1 Bft) 95,74 %
06.01.2022 11:34 2,4 C 3,3 C 1,1 C 98 % 1020,1 hPa 0,0 l/m 0 min 0 min 102 W/m 3,2 km/h (1 Bft) 97,87 %
06.01.2022 11:36 2,5 C 3,3 C 1,1 C 98 % 1020,1 hPa 0,0 l/m 0 min 0 min 129 W/m 3,2 km/h (1 Bft) 97,87 %
06.01.2022 11:38 2,6 C 3,3 C 1,1 C 98 % 1020,1 hPa 0,0 l/m 0 min 0 min 134 W/m 3,2 km/h (1 Bft) 97,87 %
06.01.2022 11:40 2,6 C 3,3 C 1,1 C 98 % 1020,0 hPa 0,0 l/m 0 min 0 min 119 W/m 3,2 km/h (1 Bft) 97,83 %
06.01.2022 11:42 2,7 C 3,9 C 1,1 C 98 % 1020,0 hPa 0,0 l/m 0 min 0 min 109 W/m 6,4 km/h (2 Bft) 93,62 %
06.01.2022 11:44 2,8 C 3,3 C 1,1 C 98 % 1020,0 hPa 0,0 l/m 0 min 0 min 95 W/m 6,4 km/h (2 Bft) 97,87 %
06.01.2022 11:46 2,8 C 3,9 C 1,1 C 98 % 1020,0 hPa 0,0 l/m 0 min 0 min 85 W/m 3,2 km/h (1 Bft) 97,87 %
06.01.2022 11:48 2,9 C 3,9 C 1,7 C 98 % 1020,0 hPa 0,0 l/m 0 min 0 min 96 W/m 3,2 km/h (1 Bft) 97,87 %
06.01.2022 11:50 3,0 C 3,9 C 1,7 C 98 % 1020,0 hPa 0,0 l/m 0 min 0 min 138 W/m 3,2 km/h (1 Bft) 97,87 %
06.01.2022 11:52 3,1 C 3,9 C 1,7 C 98 % 1020,1 hPa 0,0 l/m 2 min 0 min 165 W/m 3,2 km/h (1 Bft) 97,83 %
06.01.2022 11:54 3,1 C 3,9 C 1,7 C 98 % 1020,0 hPa 0,0 l/m 0 min 0 min 111 W/m 3,2 km/h (1 Bft) 97,87 %
06.01.2022 11:56 3,2 C 3,9 C 1,7 C 98 % 1020,0 hPa 0,0 l/m 0 min 0 min 79 W/m 6,4 km/h (2 Bft) 97,87 %
06.01.2022 11:58 3,2 C 3,9 C 1,7 C 98 % 1020,0 hPa 0,0 l/m 0 min 0 min 77 W/m 3,2 km/h (1 Bft) 93,62 %
06.01.2022 12:00 3,3 C 3,9 C 1,7 C 98 % 1020,1 hPa 0,0 l/m 0 min 0 min 74 W/m 6,4 km/h (2 Bft) 97,87 %
06.01.2022 12:02 3,4 C 3,9 C 1,7 C 98 % 1020,1 hPa 0,0 l/m 0 min 0 min 77 W/m 3,2 km/h (1 Bft) 95,65 %
06.01.2022 12:04 3,4 C 4,4 C 1,7 C 98 % 1020,0 hPa 0,0 l/m 0 min 0 min 148 W/m 6,4 km/h (2 Bft) 95,74 %
06.01.2022 12:06 3,5 C 4,4 C 1,7 C 98 % 1020,0 hPa 0,0 l/m 0 min 0 min 132 W/m 3,2 km/h (1 Bft) 100,00 %
06.01.2022 12:08 3,6 C 4,4 C 1,7 C 98 % 1020,0 hPa 0,0 l/m 0 min 0 min 71 W/m 3,2 km/h (1 Bft) 100,00 %
06.01.2022 12:10 3,6 C 4,4 C 1,7 C 98 % 1020,0 hPa 0,0 l/m 0 min 0 min 83 W/m 6,4 km/h (2 Bft) 100,00 %
06.01.2022 12:12 3,6 C 4,4 C 1,7 C 98 % 1020,0 hPa 0,0 l/m 0 min 0 min 75 W/m 3,2 km/h (1 Bft) 100,00 %
06.01.2022 12:14 3,6 C 4,4 C 1,7 C 98 % 1020,0 hPa 0,0 l/m 0 min 0 min 75 W/m 6,4 km/h (2 Bft) 97,83 %
06.01.2022 12:16 3,6 C 4,4 C 1,7 C 97 % 1020,0 hPa 0,0 l/m 0 min 0 min 83 W/m 3,2 km/h (1 Bft) 100,00 %
06.01.2022 12:18 3,6 C 4,4 C 1,7 C 97 % 1020,0 hPa 0,0 l/m 0 min 0 min 88 W/m 3,2 km/h (1 Bft) 100,00 %
06.01.2022 12:20 3,6 C 4,4 C 1,7 C 97 % 1020,0 hPa 0,0 l/m 0 min 0 min 100 W/m 3,2 km/h (1 Bft) 100,00 %
06.01.2022 12:22 3,6 C 4,4 C 2,2 C 97 % 1020,0 hPa 0,0 l/m 0 min 0 min 115 W/m 3,2 km/h (1 Bft) 100,00 %
06.01.2022 12:24 3,7 C 4,4 C 2,2 C 97 % 1020,0 hPa 0,0 l/m 0 min 0 min 121 W/m 6,4 km/h (2 Bft) 100,00 %
06.01.2022 12:26 3,7 C 4,4 C 2,2 C 97 % 1020,1 hPa 0,0 l/m 0 min 0 min 123 W/m 6,4 km/h (2 Bft) 100,00 %
06.01.2022 12:28 3,7 C 4,4 C 2,2 C 97 % 1020,0 hPa 0,0 l/m 0 min 0 min 126 W/m 6,4 km/h (2 Bft) 100,00 %
06.01.2022 12:30 3,7 C 5,0 C 2,2 C 97 % 1020,1 hPa 0,0 l/m 0 min 0 min 132 W/m 6,4 km/h (2 Bft) 100,00 %
06.01.2022 12:32 3,8 C 5,0 C 2,2 C 97 % 1020,1 hPa 0,0 l/m 0 min 0 min 134 W/m 6,4 km/h (2 Bft) 100,00 %
06.01.2022 12:34 3,8 C 5,0 C 2,2 C 97 % 1020,1 hPa 0,0 l/m 0 min 0 min 136 W/m 3,2 km/h (1 Bft) 100,00 %
06.01.2022 12:36 3,8 C 5,0 C 2,2 C 97 % 1020,1 hPa 0,0 l/m 0 min 0 min 151 W/m 3,2 km/h (1 Bft) 100,00 %
06.01.2022 12:38 3,9 C 5,6 C 2,2 C 97 % 1020,1 hPa 0,0 l/m 0 min 0 min 142 W/m 3,2 km/h (1 Bft) 100,00 %
06.01.2022 12:40 3,9 C 6,1 C 2,2 C 97 % 1020,1 hPa 0,0 l/m 2 min 0 min 166 W/m 6,4 km/h (2 Bft) 100,00 %
06.01.2022 12:42 4,0 C 7,2 C 2,2 C 97 % 1020,1 hPa 0,0 l/m 2 min 0 min 200 W/m 6,4 km/h (2 Bft) 100,00 %
06.01.2022 12:44 4,1 C 7,8 C 2,2 C 97 % 1020,1 hPa 0,0 l/m 2 min 0 min 180 W/m 6,4 km/h (2 Bft) 100,00 %
06.01.2022 12:46 4,2 C 8,9 C 2,2 C 97 % 1020,1 hPa 0,0 l/m 2 min 0 min 197 W/m 6,4 km/h (2 Bft) 97,87 %
06.01.2022 12:48 4,2 C 9,4 C 2,2 C 97 % 1020,1 hPa 0,0 l/m 2 min 0 min 235 W/m 6,4 km/h (2 Bft) 100,00 %
06.01.2022 12:50 4,3 C 10,0 C 2,2 C 97 % 1020,1 hPa 0,0 l/m 2 min 0 min 245 W/m 6,4 km/h (2 Bft) 100,00 %
06.01.2022 12:52 4,4 C 10,6 C 2,2 C 97 % 1020,1 hPa 0,0 l/m 2 min 0 min 288 W/m 6,4 km/h (2 Bft) 100,00 %
06.01.2022 12:54 4,5 C 10,0 C 2,8 C 97 % 1020,1 hPa 0,0 l/m 2 min 0 min 266 W/m 6,4 km/h (2 Bft) 97,87 %
06.01.2022 12:56 4,6 C 8,9 C 2,8 C 97 % 1020,1 hPa 0,0 l/m 2 min 0 min 199 W/m 12,9 km/h (3 Bft) 97,87 %
06.01.2022 12:58 4,6 C 7,2 C 2,8 C 97 % 1020,1 hPa 0,0 l/m 0 min 0 min 156 W/m 12,9 km/h (3 Bft) 97,87 %
06.01.2022 13:00 4,6 C 6,7 C 2,8 C 96 % 1020,1 hPa 0,0 l/m 2 min 0 min 161 W/m 6,4 km/h (2 Bft) 97,87 %
06.01.2022 13:02 4,6 C 6,1 C 2,8 C 96 % 1020,1 hPa 0,0 l/m 2 min 0 min 163 W/m 16,1 km/h (3 Bft) 95,65 %
06.01.2022 13:04 4,7 C 6,1 C 2,8 C 96 % 1020,1 hPa 0,0 l/m 0 min 0 min 152 W/m 9,7 km/h (2 Bft) 97,87 %
06.01.2022 13:06 4,7 C 6,7 C 2,8 C 96 % 1020,1 hPa 0,0 l/m 2 min 0 min 191 W/m 6,4 km/h (2 Bft) 97,87 %
06.01.2022 13:08 4,7 C 6,7 C 2,8 C 96 % 1020,1 hPa 0,0 l/m 2 min 0 min 162 W/m 6,4 km/h (2 Bft) 97,87 %
06.01.2022 13:10 4,7 C 6,1 C 2,8 C 95 % 1020,1 hPa 0,0 l/m 0 min 0 min 145 W/m 6,4 km/h (2 Bft) 95,74 %
06.01.2022 13:12 4,7 C 5,6 C 2,8 C 95 % 1020,1 hPa 0,0 l/m 0 min 0 min 129 W/m 6,4 km/h (2 Bft) 95,74 %
06.01.2022 13:14 4,7 C 5,6 C 2,8 C 95 % 1020,1 hPa 0,0 l/m 0 min 0 min 118 W/m 6,4 km/h (2 Bft) 95,65 %
06.01.2022 13:16 4,8 C 5,6 C 2,8 C 95 % 1020,2 hPa 0,0 l/m 0 min 0 min 129 W/m 3,2 km/h (1 Bft) 95,74 %
06.01.2022 13:18 4,8 C 7,2 C 2,8 C 95 % 1020,1 hPa 0,0 l/m 0 min 0 min 153 W/m 3,2 km/h (1 Bft) 95,74 %
06.01.2022 13:20 4,9 C 8,9 C 2,8 C 95 % 1020,1 hPa 0,0 l/m 2 min 0 min 218 W/m 6,4 km/h (2 Bft) 93,62 %
06.01.2022 13:22 4,9 C 7,8 C 3,3 C 95 % 1020,1 hPa 0,0 l/m 0 min 0 min 127 W/m 3,2 km/h (1 Bft) 95,74 %
06.01.2022 13:24 5,0 C 7,2 C 3,3 C 95 % 1020,1 hPa 0,0 l/m 0 min 0 min 100 W/m 0,0 km/h (0 Bft) 95,74 %
06.01.2022 13:26 5,0 C 6,7 C 3,3 C 94 % 1020,0 hPa 0,0 l/m 0 min 0 min 88 W/m 9,7 km/h (2 Bft) 95,65 %
06.01.2022 13:28 5,1 C 6,7 C 2,8 C 94 % 1020,1 hPa 0,0 l/m 0 min 0 min 98 W/m 9,7 km/h (2 Bft) 95,74 %
06.01.2022 13:30 5,1 C 6,1 C 2,8 C 94 % 1020,1 hPa 0,0 l/m 0 min 0 min 86 W/m 6,4 km/h (2 Bft) 93,62 %
06.01.2022 13:32 5,1 C 8,3 C 2,8 C 94 % 1020,0 hPa 0,0 l/m 2 min 0 min 196 W/m 3,2 km/h (1 Bft) 95,74 %
06.01.2022 13:34 5,1 C 8,3 C 2,8 C 94 % 1020,1 hPa 0,0 l/m 2 min 0 min 217 W/m 3,2 km/h (1 Bft) 93,62 %
06.01.2022 13:36 5,1 C 7,8 C 2,8 C 94 % 1020,1 hPa 0,0 l/m 0 min 0 min 125 W/m 6,4 km/h (2 Bft) 95,65 %
06.01.2022 13:38 5,1 C 7,8 C 2,8 C 93 % 1020,0 hPa 0,0 l/m 0 min 0 min 131 W/m 12,9 km/h (3 Bft) 95,74 %
06.01.2022 13:40 5,2 C 9,4 C 2,8 C 93 % 1020,0 hPa 0,0 l/m 2 min 0 min 223 W/m 6,4 km/h (2 Bft) 93,62 %
06.01.2022 13:42 5,2 C 8,9 C 2,8 C 93 % 1020,0 hPa 0,0 l/m 2 min 0 min 217 W/m 12,9 km/h (3 Bft) 95,74 %
06.01.2022 13:44 5,2 C 7,2 C 2,8 C 93 % 1020,0 hPa 0,0 l/m 0 min 0 min 82 W/m 16,1 km/h (3 Bft) 97,87 %
06.01.2022 13:46 5,2 C 6,7 C 2,8 C 93 % 1020,0 hPa 0,0 l/m 0 min 0 min 97 W/m 6,4 km/h (2 Bft) 97,87 %
06.01.2022 13:48 5,2 C 6,1 C 2,8 C 92 % 1020,0 hPa 0,0 l/m 0 min 0 min 102 W/m 6,4 km/h (2 Bft) 100,00 %
06.01.2022 13:50 5,2 C 6,1 C 2,8 C 92 % 1020,0 hPa 0,0 l/m 0 min 0 min 97 W/m 3,2 km/h (1 Bft) 97,87 %
06.01.2022 13:52 5,2 C 5,6 C 3,3 C 92 % 1020,0 hPa 0,0 l/m 0 min 0 min 96 W/m 6,4 km/h (2 Bft) 97,87 %
06.01.2022 13:54 5,2 C 5,6 C 3,3 C 92 % 1019,9 hPa 0,0 l/m 0 min 0 min 82 W/m 6,4 km/h (2 Bft) 97,87 %
06.01.2022 13:56 5,2 C 5,0 C 3,3 C 92 % 1019,9 hPa 0,0 l/m 0 min 0 min 66 W/m 6,4 km/h (2 Bft) 95,74 %
06.01.2022 13:58 5,2 C 5,0 C 3,3 C 92 % 1019,9 hPa 0,0 l/m 0 min 0 min 64 W/m 16,1 km/h (3 Bft) 97,87 %
06.01.2022 14:00 5,1 C 5,0 C 3,3 C 92 % 1019,9 hPa 0,0 l/m 0 min 0 min 68 W/m 12,9 km/h (3 Bft) 97,83 %
06.01.2022 14:02 5,1 C 5,0 C 3,3 C 92 % 1019,9 hPa 0,0 l/m 0 min 0 min 61 W/m 9,7 km/h (2 Bft) 100,00 %
06.01.2022 14:04 5,1 C 5,0 C 3,3 C 92 % 1019,9 hPa 0,0 l/m 0 min 0 min 54 W/m 6,4 km/h (2 Bft) 97,87 %
06.01.2022 14:06 5,1 C 5,0 C 3,3 C 92 % 1019,9 hPa 0,0 l/m 0 min 0 min 57 W/m 6,4 km/h (2 Bft) 93,62 %
06.01.2022 14:08 5,1 C 5,0 C 3,3 C 92 % 1019,9 hPa 0,0 l/m 0 min 0 min 71 W/m 3,2 km/h (1 Bft) 97,87 %
06.01.2022 14:10 5,1 C 5,0 C 3,3 C 92 % 1019,8 hPa 0,0 l/m 0 min 0 min 95 W/m 3,2 km/h (1 Bft) 97,87 %
06.01.2022 14:12 5,1 C 5,6 C 3,3 C 92 % 1019,8 hPa 0,0 l/m 2 min 0 min 136 W/m 6,4 km/h (2 Bft) 97,83 %
06.01.2022 14:14 5,1 C 5,6 C 3,3 C 92 % 1019,8 hPa 0,0 l/m 0 min 0 min 124 W/m 6,4 km/h (2 Bft) 97,87 %
06.01.2022 14:16 5,1 C 5,6 C 3,3 C 92 % 1019,8 hPa 0,0 l/m 0 min 0 min 130 W/m 6,4 km/h (2 Bft) 95,74 %
06.01.2022 14:18 5,2 C 5,6 C 3,3 C 92 % 1019,7 hPa 0,0 l/m 0 min 0 min 125 W/m 16,1 km/h (3 Bft) 97,87 %
06.01.2022 14:20 5,2 C 5,6 C 3,9 C 92 % 1019,7 hPa 0,0 l/m 0 min 0 min 111 W/m 6,4 km/h (2 Bft) 97,87 %
06.01.2022 14:22 5,2 C 5,6 C 3,9 C 92 % 1019,8 hPa 0,0 l/m 0 min 0 min 99 W/m 16,1 km/h (3 Bft) 97,87 %
06.01.2022 14:24 5,2 C 5,0 C 3,9 C 92 % 1019,7 hPa 0,0 l/m 0 min 0 min 91 W/m 12,9 km/h (3 Bft) 97,83 %
06.01.2022 14:26 5,2 C 5,0 C 3,9 C 92 % 1019,8 hPa 0,0 l/m 0 min 0 min 92 W/m 6,4 km/h (2 Bft) 95,74 %
06.01.2022 14:28 5,2 C 5,0 C 3,3 C 92 % 1019,8 hPa 0,0 l/m 0 min 0 min 104 W/m 9,7 km/h (2 Bft) 97,87 %
06.01.2022 14:30 5,2 C 5,0 C 3,3 C 92 % 1019,7 hPa 0,0 l/m 0 min 0 min 100 W/m 9,7 km/h (2 Bft) 97,87 %
06.01.2022 14:32 5,3 C 5,6 C 3,3 C 92 % 1019,8 hPa 0,0 l/m 2 min 0 min 123 W/m 9,7 km/h (2 Bft) 97,87 %
06.01.2022 14:34 5,3 C 6,1 C 3,9 C 92 % 1019,7 hPa 0,0 l/m 2 min 0 min 159 W/m 9,7 km/h (2 Bft) 95,74 %
06.01.2022 14:36 5,3 C 6,7 C 3,9 C 92 % 1019,6 hPa 0,0 l/m 2 min 0 min 215 W/m 12,9 km/h (3 Bft) 97,83 %
06.01.2022 14:38 5,3 C 6,7 C 3,9 C 92 % 1019,6 hPa 0,0 l/m 2 min 0 min 246 W/m 16,1 km/h (3 Bft) 97,87 %
06.01.2022 14:40 5,4 C 6,7 C 3,9 C 92 % 1019,7 hPa 0,0 l/m 2 min 0 min 212 W/m 12,9 km/h (3 Bft) 97,87 %
06.01.2022 14:42 5,5 C 7,2 C 3,9 C 92 % 1019,6 hPa 0,0 l/m 2 min 0 min 220 W/m 6,4 km/h (2 Bft) 97,87 %
06.01.2022 14:44 5,6 C 7,8 C 3,9 C 92 % 1019,6 hPa 0,0 l/m 2 min 0 min 216 W/m 22,5 km/h (4 Bft) 97,87 %
06.01.2022 14:46 5,6 C 8,3 C 3,9 C 92 % 1019,6 hPa 0,0 l/m 2 min 0 min 210 W/m 19,3 km/h (3 Bft) 97,87 %
06.01.2022 14:48 5,7 C 9,4 C 3,9 C 91 % 1019,6 hPa 0,0 l/m 2 min 0 min 197 W/m 12,9 km/h (3 Bft) 97,83 %
06.01.2022 14:50 5,7 C 9,4 C 3,9 C 91 % 1019,5 hPa 0,0 l/m 2 min 0 min 177 W/m 12,9 km/h (3 Bft) 97,87 %
06.01.2022 14:52 5,8 C 9,4 C 3,9 C 91 % 1019,5 hPa 0,0 l/m 2 min 0 min 148 W/m 19,3 km/h (3 Bft) 100,00 %
06.01.2022 14:54 5,8 C 8,3 C 3,9 C 90 % 1019,5 hPa 0,0 l/m 2 min 0 min 154 W/m 12,9 km/h (3 Bft) 97,87 %
06.01.2022 14:56 5,7 C 7,2 C 3,9 C 90 % 1019,5 hPa 0,0 l/m 2 min 0 min 128 W/m 16,1 km/h (3 Bft) 100,00 %
06.01.2022 14:58 5,7 C 6,1 C 3,9 C 90 % 1019,5 hPa 0,0 l/m 0 min 0 min 84 W/m 19,3 km/h (3 Bft) 100,00 %
06.01.2022 15:00 5,7 C 6,1 C 3,9 C 90 % 1019,6 hPa 0,0 l/m 0 min 0 min 83 W/m 9,7 km/h (2 Bft) 100,00 %
06.01.2022 15:02 5,8 C 5,6 C 3,9 C 90 % 1019,5 hPa 0,0 l/m 2 min 0 min 117 W/m 12,9 km/h (3 Bft) 97,92 %
06.01.2022 15:04 5,8 C 5,6 C 3,9 C 89 % 1019,6 hPa 0,0 l/m 2 min 0 min 130 W/m 9,7 km/h (2 Bft) 97,87 %
06.01.2022 15:06 5,8 C 5,6 C 3,9 C 89 % 1019,6 hPa 0,0 l/m 2 min 0 min 131 W/m 12,9 km/h (3 Bft) 100,00 %
06.01.2022 15:08 5,8 C 5,6 C 3,9 C 89 % 1019,5 hPa 0,0 l/m 2 min 0 min 125 W/m 6,4 km/h (2 Bft) 100,00 %
06.01.2022 15:10 5,8 C 5,6 C 3,9 C 89 % 1019,5 hPa 0,0 l/m 2 min 0 min 125 W/m 6,4 km/h (2 Bft) 100,00 %
06.01.2022 15:12 5,8 C 5,6 C 3,9 C 89 % 1019,6 hPa 0,0 l/m 2 min 0 min 114 W/m 6,4 km/h (2 Bft) 100,00 %
06.01.2022 15:14 5,8 C 5,6 C 3,9 C 89 % 1019,6 hPa 0,0 l/m 0 min 0 min 85 W/m 6,4 km/h (2 Bft) 97,83 %
06.01.2022 15:16 5,9 C 5,6 C 3,9 C 89 % 1019,5 hPa 0,0 l/m 2 min 0 min 99 W/m 6,4 km/h (2 Bft) 100,00 %
06.01.2022 15:18 5,8 C 5,6 C 3,3 C 89 % 1019,5 hPa 0,0 l/m 2 min 0 min 93 W/m 9,7 km/h (2 Bft) 100,00 %
06.01.2022 15:20 5,8 C 5,6 C 3,3 C 89 % 1019,6 hPa 0,0 l/m 0 min 0 min 74 W/m 9,7 km/h (2 Bft) 100,00 %
06.01.2022 15:22 5,8 C 5,6 C 3,3 C 89 % 1019,6 hPa 0,0 l/m 2 min 0 min 89 W/m 12,9 km/h (3 Bft) 100,00 %
06.01.2022 15:24 5,8 C 5,6 C 3,9 C 89 % 1019,5 hPa 0,0 l/m 2 min 0 min 95 W/m 12,9 km/h (3 Bft) 100,00 %
06.01.2022 15:26 5,7 C 5,6 C 3,9 C 88 % 1019,5 hPa 0,0 l/m 2 min 0 min 80 W/m 16,1 km/h (3 Bft) 100,00 %
06.01.2022 15:28 5,7 C 5,6 C 3,9 C 88 % 1019,6 hPa 0,0 l/m 0 min 0 min 61 W/m 12,9 km/h (3 Bft) 100,00 %
06.01.2022 15:30 5,7 C 5,6 C 3,3 C 88 % 1019,5 hPa 0,0 l/m 0 min 0 min 55 W/m 19,3 km/h (3 Bft) 100,00 %
06.01.2022 15:32 5,7 C 5,0 C 3,3 C 88 % 1019,6 hPa 0,0 l/m 0 min 0 min 48 W/m 12,9 km/h (3 Bft) 100,00 %
06.01.2022 15:34 5,7 C 5,0 C 3,3 C 88 % 1019,6 hPa 0,0 l/m 0 min 0 min 48 W/m 9,7 km/h (2 Bft) 100,00 %
06.01.2022 15:36 5,7 C 5,0 C 3,3 C 88 % 1019,6 hPa 0,0 l/m 0 min 0 min 44 W/m 9,7 km/h (2 Bft) 100,00 %
06.01.2022 15:38 5,7 C 5,0 C 3,3 C 88 % 1019,6 hPa 0,0 l/m 0 min 0 min 36 W/m 6,4 km/h (2 Bft) 97,83 %
06.01.2022 15:40 5,7 C 5,0 C 3,3 C 88 % 1019,6 hPa 0,0 l/m 0 min 0 min 33 W/m 6,4 km/h (2 Bft) 97,87 %
06.01.2022 15:42 5,6 C 5,0 C 3,3 C 88 % 1019,6 hPa 0,0 l/m 0 min 0 min 31 W/m 12,9 km/h (3 Bft) 97,87 %
06.01.2022 15:44 5,6 C 5,0 C 3,3 C 88 % 1019,6 hPa 0,0 l/m 0 min 0 min 28 W/m 12,9 km/h (3 Bft) 97,87 %
06.01.2022 15:46 5,5 C 4,4 C 3,3 C 88 % 1019,6 hPa 0,0 l/m 0 min 0 min 28 W/m 16,1 km/h (3 Bft) 97,87 %
06.01.2022 15:48 5,4 C 4,4 C 3,3 C 88 % 1019,6 hPa 0,0 l/m 0 min 0 min 29 W/m 25,7 km/h (4 Bft) 97,87 %
06.01.2022 15:50 5,3 C 4,4 C 3,3 C 88 % 1019,6 hPa 0,0 l/m 0 min 0 min 32 W/m 16,1 km/h (3 Bft) 95,65 %
06.01.2022 15:52 5,3 C 4,4 C 3,3 C 88 % 1019,6 hPa 0,0 l/m 0 min 0 min 40 W/m 12,9 km/h (3 Bft) 97,87 %
06.01.2022 15:54 5,3 C 4,4 C 3,3 C 88 % 1019,6 hPa 0,0 l/m 0 min 0 min 45 W/m 16,1 km/h (3 Bft) 97,87 %
06.01.2022 15:56 5,3 C 4,4 C 3,3 C 88 % 1019,6 hPa 0,0 l/m 0 min 0 min 37 W/m 9,7 km/h (2 Bft) 95,74 %
06.01.2022 15:58 5,3 C 4,4 C 3,3 C 88 % 1019,6 hPa 0,0 l/m 0 min 0 min 29 W/m 6,4 km/h (2 Bft) 93,62 %
06.01.2022 16:00 5,3 C 4,4 C 3,3 C 88 % 1019,6 hPa 0,0 l/m 0 min 0 min 25 W/m 6,4 km/h (2 Bft) 97,87 %
06.01.2022 16:02 5,2 C 4,4 C 2,8 C 88 % 1019,6 hPa 0,0 l/m 0 min 0 min 23 W/m 9,7 km/h (2 Bft) 97,83 %
06.01.2022 16:04 5,2 C 4,4 C 2,8 C 88 % 1019,6 hPa 0,0 l/m 0 min 0 min 22 W/m 12,9 km/h (3 Bft) 95,74 %
06.01.2022 16:06 5,1 C 4,4 C 2,8 C 88 % 1019,7 hPa 0,0 l/m 0 min 0 min 21 W/m 9,7 km/h (2 Bft) 95,74 %
06.01.2022 16:08 5,1 C 4,4 C 2,8 C 89 % 1019,7 hPa 0,0 l/m 0 min 0 min 20 W/m 9,7 km/h (2 Bft) 95,74 %
06.01.2022 16:10 5,1 C 4,4 C 2,8 C 89 % 1019,6 hPa 0,0 l/m 0 min 0 min 19 W/m 16,1 km/h (3 Bft) 95,74 %
06.01.2022 16:12 5,1 C 4,4 C 2,8 C 89 % 1019,6 hPa 0,0 l/m 0 min 0 min 19 W/m 19,3 km/h (3 Bft) 95,74 %
06.01.2022 16:14 5,0 C 4,4 C 2,8 C 89 % 1019,7 hPa 0,0 l/m 0 min 0 min 22 W/m 16,1 km/h (3 Bft) 95,65 %
06.01.2022 16:16 4,9 C 3,9 C 2,8 C 89 % 1019,7 hPa 0,0 l/m 2 min 0 min 24 W/m 9,7 km/h (2 Bft) 95,74 %
06.01.2022 16:18 4,9 C 3,9 C 2,8 C 89 % 1019,7 hPa 0,0 l/m 0 min 0 min 18 W/m 9,7 km/h (2 Bft) 95,74 %
06.01.2022 16:20 4,9 C 3,9 C 2,8 C 89 % 1019,7 hPa 0,0 l/m 0 min 0 min 17 W/m 9,7 km/h (2 Bft) 97,87 %
06.01.2022 16:22 4,9 C 3,9 C 2,8 C 89 % 1019,7 hPa 0,0 l/m 0 min 0 min 15 W/m 9,7 km/h (2 Bft) 95,74 %
06.01.2022 16:24 4,8 C 3,9 C 2,8 C 89 % 1019,7 hPa 0,0 l/m 0 min 0 min 12 W/m 12,9 km/h (3 Bft) 97,87 %
06.01.2022 16:26 4,8 C 3,9 C 2,8 C 90 % 1019,7 hPa 0,0 l/m 0 min 0 min 11 W/m 12,9 km/h (3 Bft) 97,83 %
06.01.2022 16:28 4,8 C 3,9 C 2,8 C 89 % 1019,8 hPa 0,0 l/m 0 min 0 min 10 W/m 19,3 km/h (3 Bft) 97,87 %
06.01.2022 16:30 4,7 C 3,9 C 2,8 C 90 % 1019,7 hPa 0,0 l/m 0 min 0 min 9 W/m 22,5 km/h (4 Bft) 97,87 %
06.01.2022 16:32 4,7 C 3,9 C 2,8 C 90 % 1019,8 hPa 0,0 l/m 0 min 0 min 8 W/m 9,7 km/h (2 Bft) 97,87 %
06.01.2022 16:34 4,7 C 3,9 C 2,2 C 90 % 1019,7 hPa 0,0 l/m 0 min 0 min 7 W/m 16,1 km/h (3 Bft) 100,00 %
06.01.2022 16:36 4,6 C 3,9 C 2,2 C 90 % 1019,7 hPa 0,0 l/m 0 min 0 min 6 W/m 6,4 km/h (2 Bft) 100,00 %
06.01.2022 16:38 4,6 C 3,3 C 2,2 C 90 % 1019,7 hPa 0,0 l/m 0 min 0 min 5 W/m 12,9 km/h (3 Bft) 100,00 %
06.01.2022 16:40 4,6 C 3,3 C 2,2 C 90 % 1019,8 hPa 0,0 l/m 0 min 0 min 5 W/m 16,1 km/h (3 Bft) 95,74 %
06.01.2022 16:42 4,5 C 3,3 C 2,2 C 90 % 1019,7 hPa 0,0 l/m 0 min 0 min 0 W/m 12,9 km/h (3 Bft) 97,87 %
06.01.2022 16:44 4,5 C 3,3 C 2,2 C 90 % 1019,7 hPa 0,0 l/m 0 min 0 min 0 W/m 9,7 km/h (2 Bft) 97,87 %
06.01.2022 16:46 4,4 C 3,3 C 2,2 C 90 % 1019,7 hPa 0,0 l/m 0 min 0 min 0 W/m 12,9 km/h (3 Bft) 97,87 %
06.01.2022 16:48 4,4 C 3,3 C 2,2 C 90 % 1019,7 hPa 0,0 l/m 0 min 0 min 0 W/m 16,1 km/h (3 Bft) 97,87 %
06.01.2022 16:50 4,4 C 3,3 C 2,2 C 90 % 1019,7 hPa 0,0 l/m 0 min 0 min 0 W/m 12,9 km/h (3 Bft) 97,83 %
06.01.2022 16:52 4,3 C 3,3 C 2,2 C 90 % 1019,7 hPa 0,0 l/m 0 min 0 min 0 W/m 19,3 km/h (3 Bft) 97,87 %
06.01.2022 16:54 4,3 C 3,3 C 2,2 C 90 % 1019,7 hPa 0,0 l/m 0 min 0 min 0 W/m 9,7 km/h (2 Bft) 97,87 %
06.01.2022 16:56 4,3 C 3,3 C 2,2 C 90 % 1019,8 hPa 0,0 l/m 0 min 0 min 0 W/m 12,9 km/h (3 Bft) 95,74 %
06.01.2022 16:58 4,2 C 3,3 C 2,2 C 90 % 1019,7 hPa 0,0 l/m 0 min 0 min 0 W/m 25,7 km/h (4 Bft) 97,87 %
06.01.2022 17:00 4,2 C 3,3 C 2,2 C 90 % 1019,8 hPa 0,0 l/m 0 min 0 min 0 W/m 6,4 km/h (2 Bft) 97,87 %
06.01.2022 17:02 4,2 C 3,3 C 2,2 C 90 % 1019,7 hPa 0,0 l/m 0 min 0 min 0 W/m 12,9 km/h (3 Bft) 95,65 %
06.01.2022 17:04 4,1 C 3,3 C 2,2 C 90 % 1019,8 hPa 0,0 l/m 0 min 0 min 0 W/m 16,1 km/h (3 Bft) 97,87 %
06.01.2022 17:06 4,1 C 3,3 C 2,2 C 91 % 1019,8 hPa 0,0 l/m 0 min 0 min 0 W/m 9,7 km/h (2 Bft) 97,87 %
06.01.2022 17:08 4,1 C 2,8 C 1,7 C 91 % 1019,7 hPa 0,0 l/m 0 min 0 min 0 W/m 12,9 km/h (3 Bft) 97,87 %
06.01.2022 17:10 4,1 C 2,8 C 1,7 C 91 % 1019,7 hPa 0,0 l/m 0 min 0 min 0 W/m 9,7 km/h (2 Bft) 97,87 %
06.01.2022 17:12 4,0 C 2,8 C 1,7 C 91 % 1019,8 hPa 0,0 l/m 0 min 0 min 0 W/m 6,4 km/h (2 Bft) 97,83 %
06.01.2022 17:14 3,9 C 2,8 C 1,7 C 91 % 1019,7 hPa 0,0 l/m 0 min 0 min 0 W/m 6,4 km/h (2 Bft) 95,74 %
06.01.2022 17:16 3,9 C 2,8 C 1,7 C 91 % 1019,7 hPa 0,0 l/m 0 min 0 min 0 W/m 9,7 km/h (2 Bft) 97,87 %
06.01.2022 17:18 3,9 C 2,8 C 1,7 C 91 % 1019,7 hPa 0,0 l/m 0 min 0 min 0 W/m 3,2 km/h (1 Bft) 97,87 %
06.01.2022 17:20 3,9 C 2,8 C 1,7 C 91 % 1019,7 hPa 0,0 l/m 0 min 0 min 0 W/m 6,4 km/h (2 Bft) 95,74 %
06.01.2022 17:22 3,8 C 2,8 C 1,7 C 91 % 1019,7 hPa 0,0 l/m 0 min 0 min 0 W/m 3,2 km/h (1 Bft) 97,87 %
06.01.2022 17:24 3,8 C 2,8 C 1,7 C 91 % 1019,8 hPa 0,0 l/m 0 min 0 min 0 W/m 6,4 km/h (2 Bft) 97,83 %
06.01.2022 17:26 3,8 C 2,8 C 1,7 C 91 % 1019,7 hPa 0,0 l/m 0 min 0 min 0 W/m 6,4 km/h (2 Bft) 97,87 %
06.01.2022 17:28 3,8 C 2,8 C 1,7 C 91 % 1019,7 hPa 0,0 l/m 0 min 0 min 0 W/m 6,4 km/h (2 Bft) 97,87 %
06.01.2022 17:30 3,7 C 2,8 C 1,7 C 91 % 1019,8 hPa 0,0 l/m 0 min 0 min 0 W/m 6,4 km/h (2 Bft) 93,62 %
06.01.2022 17:32 3,7 C 2,8 C 1,7 C 91 % 1019,7 hPa 0,0 l/m 0 min 0 min 0 W/m 6,4 km/h (2 Bft) 97,87 %
06.01.2022 17:34 3,7 C 2,8 C 1,7 C 91 % 1019,7 hPa 0,0 l/m 0 min 0 min 0 W/m 6,4 km/h (2 Bft) 97,87 %
06.01.2022 17:36 3,6 C 2,2 C 1,7 C 91 % 1019,7 hPa 0,0 l/m 0 min 0 min 0 W/m 6,4 km/h (2 Bft) 97,83 %
06.01.2022 17:38 3,6 C 2,8 C 1,7 C 92 % 1019,8 hPa 0,0 l/m 0 min 0 min 0 W/m 3,2 km/h (1 Bft) 97,87 %
06.01.2022 17:40 3,6 C 2,8 C 1,7 C 92 % 1019,8 hPa 0,0 l/m 0 min 0 min 0 W/m 12,9 km/h (3 Bft) 97,87 %
06.01.2022 17:42 3,6 C 2,2 C 1,7 C 92 % 1019,8 hPa 0,0 l/m 0 min 0 min 0 W/m 6,4 km/h (2 Bft) 97,87 %
06.01.2022 17:44 3,5 C 2,2 C 1,7 C 92 % 1019,8 hPa 0,0 l/m 0 min 0 min 0 W/m 3,2 km/h (1 Bft) 97,87 %
06.01.2022 17:46 3,5 C 2,2 C 1,1 C 92 % 1019,8 hPa 0,0 l/m 0 min 0 min 0 W/m 6,4 km/h (2 Bft) 93,62 %
06.01.2022 17:48 3,4 C 2,2 C 1,1 C 92 % 1019,7 hPa 0,0 l/m 0 min 0 min 0 W/m 12,9 km/h (3 Bft) 97,83 %
06.01.2022 17:50 3,4 C 2,2 C 1,1 C 92 % 1019,8 hPa 0,0 l/m 0 min 0 min 0 W/m 6,4 km/h (2 Bft) 97,87 %
06.01.2022 17:52 3,4 C 2,2 C 1,1 C 92 % 1019,7 hPa 0,0 l/m 0 min 0 min 0 W/m 6,4 km/h (2 Bft) 95,74 %
06.01.2022 17:54 3,4 C 2,2 C 1,1 C 92 % 1019,7 hPa 0,0 l/m 0 min 0 min 0 W/m 9,7 km/h (2 Bft) 93,62 %
06.01.2022 17:56 3,3 C 2,2 C 1,1 C 92 % 1019,8 hPa 0,0 l/m 0 min 0 min 0 W/m 6,4 km/h (2 Bft) 97,87 %
06.01.2022 17:58 3,3 C 2,2 C 1,1 C 92 % 1019,8 hPa 0,0 l/m 0 min 0 min 0 W/m 3,2 km/h (1 Bft) 95,74 %
06.01.2022 18:00 3,3 C 2,2 C 1,1 C 92 % 1019,7 hPa 0,0 l/m 0 min 0 min 0 W/m 6,4 km/h (2 Bft) 95,65 %
06.01.2022 18:02 3,2 C 2,2 C 1,1 C 92 % 1019,7 hPa 0,0 l/m 0 min 0 min 0 W/m 6,4 km/h (2 Bft) 97,87 %
06.01.2022 18:04 3,2 C 2,2 C 1,1 C 92 % 1019,7 hPa 0,0 l/m 0 min 0 min 0 W/m 6,4 km/h (2 Bft) 97,87 %
06.01.2022 18:06 3,2 C 2,2 C 1,1 C 92 % 1019,8 hPa 0,0 l/m 0 min 0 min 0 W/m 6,4 km/h (2 Bft) 97,87 %
06.01.2022 18:08 3,2 C 2,2 C 1,1 C 92 % 1019,8 hPa 0,0 l/m 0 min 0 min 0 W/m 9,7 km/h (2 Bft) 97,87 %
06.01.2022 18:10 3,1 C 2,2 C 1,1 C 92 % 1019,7 hPa 0,0 l/m 0 min 0 min 0 W/m 6,4 km/h (2 Bft) 97,87 %
06.01.2022 18:12 3,1 C 2,2 C 1,1 C 92 % 1019,7 hPa 0,0 l/m 0 min 0 min 0 W/m 9,7 km/h (2 Bft) 97,83 %
06.01.2022 18:14 3,1 C 2,2 C 1,1 C 92 % 1019,8 hPa 0,0 l/m 0 min 0 min 0 W/m 12,9 km/h (3 Bft) 97,87 %
06.01.2022 18:16 3,1 C 2,2 C 1,1 C 92 % 1019,8 hPa 0,0 l/m 0 min 0 min 0 W/m 9,7 km/h (2 Bft) 97,87 %
06.01.2022 18:18 3,1 C 2,2 C 1,1 C 93 % 1019,8 hPa 0,0 l/m 0 min 0 min 0 W/m 12,9 km/h (3 Bft) 97,87 %
06.01.2022 18:20 3,1 C 2,2 C 1,1 C 93 % 1019,8 hPa 0,0 l/m 0 min 0 min 0 W/m 9,7 km/h (2 Bft) 97,87 %
06.01.2022 18:22 3,0 C 2,2 C 1,1 C 92 % 1019,8 hPa 0,0 l/m 0 min 0 min 0 W/m 19,3 km/h (3 Bft) 97,87 %
06.01.2022 18:24 3,0 C 2,2 C 1,1 C 92 % 1019,8 hPa 0,0 l/m 0 min 0 min 0 W/m 6,4 km/h (2 Bft) 97,83 %
06.01.2022 18:26 3,0 C 2,2 C 1,1 C 93 % 1019,8 hPa 0,0 l/m 0 min 0 min 0 W/m 6,4 km/h (2 Bft) 97,87 %
06.01.2022 18:28 2,9 C 2,2 C 1,1 C 93 % 1019,8 hPa 0,0 l/m 0 min 0 min 0 W/m 6,4 km/h (2 Bft) 97,87 %
06.01.2022 18:30 2,9 C 2,2 C 1,1 C 93 % 1019,8 hPa 0,0 l/m 0 min 0 min 0 W/m 9,7 km/h (2 Bft) 97,87 %
06.01.2022 18:32 2,9 C 1,7 C 1,1 C 93 % 1019,8 hPa 0,0 l/m 0 min 0 min 0 W/m 6,4 km/h (2 Bft) 97,87 %
06.01.2022 18:34 2,9 C 1,7 C 1,1 C 93 % 1019,8 hPa 0,0 l/m 0 min 0 min 0 W/m 6,4 km/h (2 Bft) 97,87 %
06.01.2022 18:36 2,8 C 1,7 C 1,1 C 93 % 1019,8 hPa 0,0 l/m 0 min 0 min 0 W/m 6,4 km/h (2 Bft) 97,83 %
06.01.2022 18:38 2,8 C 1,7 C 0,6 C 93 % 1019,8 hPa 0,0 l/m 0 min 0 min 0 W/m 9,7 km/h (2 Bft) 95,74 %
06.01.2022 18:40 2,8 C 1,7 C 0,6 C 93 % 1019,9 hPa 0,0 l/m 0 min 0 min 0 W/m 12,9 km/h (3 Bft) 97,87 %
06.01.2022 18:42 2,8 C 1,7 C 0,6 C 93 % 1019,8 hPa 0,0 l/m 0 min 0 min 0 W/m 9,7 km/h (2 Bft) 95,74 %
06.01.2022 18:44 2,8 C 1,7 C 0,6 C 93 % 1019,8 hPa 0,0 l/m 0 min 0 min 0 W/m 9,7 km/h (2 Bft) 97,87 %
06.01.2022 18:46 2,8 C 1,7 C 0,6 C 93 % 1019,9 hPa 0,0 l/m 0 min 0 min 0 W/m 9,7 km/h (2 Bft) 97,87 %
06.01.2022 18:48 2,7 C 1,7 C 0,6 C 93 % 1019,8 hPa 0,0 l/m 0 min 0 min 0 W/m 6,4 km/h (2 Bft) 100,00 %
06.01.2022 18:50 2,7 C 1,7 C 0,6 C 93 % 1019,8 hPa 0,0 l/m 0 min 0 min 0 W/m 6,4 km/h (2 Bft) 100,00 %
06.01.2022 18:52 2,7 C 1,7 C 0,6 C 93 % 1019,9 hPa 0,0 l/m 0 min 0 min 0 W/m 3,2 km/h (1 Bft) 100,00 %
06.01.2022 18:54 2,7 C 1,7 C 0,6 C 93 % 1019,9 hPa 0,0 l/m 0 min 0 min 0 W/m 6,4 km/h (2 Bft) 100,00 %
06.01.2022 18:56 2,6 C 1,7 C 0,6 C 93 % 1019,9 hPa 0,0 l/m 0 min 0 min 0 W/m 3,2 km/h (1 Bft) 97,87 %
06.01.2022 18:58 2,6 C 1,7 C 0,6 C 93 % 1019,9 hPa 0,0 l/m 0 min 0 min 0 W/m 3,2 km/h (1 Bft) 100,00 %
06.01.2022 19:00 2,6 C 1,7 C 0,6 C 93 % 1019,9 hPa 0,0 l/m 0 min 0 min 0 W/m 6,4 km/h (2 Bft) 100,00 %
06.01.2022 19:02 2,6 C 1,1 C 0,6 C 93 % 1019,9 hPa 0,0 l/m 0 min 0 min 0 W/m 6,4 km/h (2 Bft) 98,15 %
06.01.2022 19:04 2,5 C 1,7 C 0,6 C 93 % 1019,9 hPa 0,0 l/m 0 min 0 min 0 W/m 6,4 km/h (2 Bft) 100,00 %
06.01.2022 19:06 2,5 C 1,1 C 0,6 C 93 % 1019,9 hPa 0,0 l/m 0 min 0 min 0 W/m 3,2 km/h (1 Bft) 100,00 %
06.01.2022 19:08 2,5 C 1,1 C 0,6 C 93 % 1019,9 hPa 0,0 l/m 0 min 0 min 0 W/m 6,4 km/h (2 Bft) 100,00 %
06.01.2022 19:10 2,4 C 1,1 C 0,6 C 93 % 1019,9 hPa 0,0 l/m 0 min 0 min 0 W/m 6,4 km/h (2 Bft) 100,00 %
06.01.2022 19:12 2,4 C 1,1 C 0,6 C 93 % 1019,9 hPa 0,0 l/m 0 min 0 min 0 W/m 9,7 km/h (2 Bft) 100,00 %
06.01.2022 19:14 2,4 C 1,1 C 0,6 C 93 % 1019,9 hPa 0,0 l/m 0 min 0 min 0 W/m 16,1 km/h (3 Bft) 97,87 %
06.01.2022 19:16 2,4 C 1,1 C 0,6 C 93 % 1020,0 hPa 0,0 l/m 0 min 0 min 0 W/m 6,4 km/h (2 Bft) 100,00 %
06.01.2022 19:18 2,4 C 1,1 C 0,6 C 93 % 1019,9 hPa 0,0 l/m 0 min 0 min 0 W/m 6,4 km/h (2 Bft) 100,00 %
06.01.2022 19:20 2,3 C 1,1 C 0,6 C 93 % 1020,0 hPa 0,0 l/m 0 min 0 min 0 W/m 6,4 km/h (2 Bft) 100,00 %
06.01.2022 19:22 2,3 C 1,1 C 0,6 C 94 % 1020,0 hPa 0,0 l/m 0 min 0 min 0 W/m 6,4 km/h (2 Bft) 97,87 %
06.01.2022 19:24 2,3 C 1,1 C 0,6 C 94 % 1020,0 hPa 0,0 l/m 0 min 0 min 0 W/m 6,4 km/h (2 Bft) 97,87 %
06.01.2022 19:26 2,3 C 1,1 C 0,6 C 94 % 1020,0 hPa 0,0 l/m 0 min 0 min 0 W/m 6,4 km/h (2 Bft) 97,87 %
06.01.2022 19:28 2,3 C 1,1 C 0,6 C 93 % 1020,0 hPa 0,0 l/m 0 min 0 min 0 W/m 6,4 km/h (2 Bft) 97,87 %
06.01.2022 19:30 2,3 C 1,1 C 0,6 C 93 % 1020,0 hPa 0,0 l/m 0 min 0 min 0 W/m 9,7 km/h (2 Bft) 97,87 %
06.01.2022 19:32 2,2 C 1,1 C 0,6 C 94 % 1020,0 hPa 0,0 l/m 0 min 0 min 0 W/m 9,7 km/h (2 Bft) 97,83 %
06.01.2022 19:34 2,2 C 1,1 C 0,6 C 94 % 1020,0 hPa 0,0 l/m 0 min 0 min 0 W/m 12,9 km/h (3 Bft) 97,87 %
06.01.2022 19:36 2,2 C 1,1 C 0,6 C 94 % 1020,0 hPa 0,0 l/m 0 min 0 min 0 W/m 9,7 km/h (2 Bft) 97,87 %
06.01.2022 19:38 2,2 C 1,1 C 0,6 C 94 % 1020,0 hPa 0,0 l/m 0 min 0 min 0 W/m 9,7 km/h (2 Bft) 97,87 %
06.01.2022 19:40 2,2 C 1,1 C 0,6 C 94 % 1020,0 hPa 0,0 l/m 0 min 0 min 0 W/m 6,4 km/h (2 Bft) 97,87 %
06.01.2022 19:42 2,2 C 1,1 C 0,6 C 94 % 1020,0 hPa 0,0 l/m 0 min 0 min 0 W/m 9,7 km/h (2 Bft) 97,87 %
06.01.2022 19:44 2,2 C 1,1 C 0,6 C 94 % 1020,0 hPa 0,0 l/m 0 min 0 min 0 W/m 12,9 km/h (3 Bft) 97,87 %
06.01.2022 19:46 2,1 C 1,1 C 0,6 C 94 % 1019,9 hPa 0,0 l/m 0 min 0 min 0 W/m 6,4 km/h (2 Bft) 97,83 %
06.01.2022 19:48 2,2 C 1,1 C 0,6 C 94 % 1019,9 hPa 0,0 l/m 0 min 0 min 0 W/m 16,1 km/h (3 Bft) 97,87 %
06.01.2022 19:50 2,1 C 1,1 C 0,6 C 94 % 1019,9 hPa 0,0 l/m 0 min 0 min 0 W/m 16,1 km/h (3 Bft) 95,74 %
06.01.2022 19:52 2,1 C 1,1 C 0,6 C 94 % 1019,9 hPa 0,0 l/m 0 min 0 min 0 W/m 9,7 km/h (2 Bft) 95,74 %
06.01.2022 19:54 2,1 C 1,1 C 0,6 C 94 % 1019,9 hPa 0,0 l/m 0 min 0 min 0 W/m 12,9 km/h (3 Bft) 97,87 %
06.01.2022 19:56 2,1 C 1,1 C 0,6 C 94 % 1019,9 hPa 0,0 l/m 0 min 0 min 0 W/m 12,9 km/h (3 Bft) 100,00 %
06.01.2022 19:58 2,1 C 1,1 C 0,6 C 94 % 1019,8 hPa 0,0 l/m 0 min 0 min 0 W/m 22,5 km/h (4 Bft) 100,00 %
06.01.2022 20:00 2,1 C 1,1 C 0,6 C 94 % 1019,8 hPa 0,0 l/m 0 min 0 min 0 W/m 12,9 km/h (3 Bft) 97,87 %
06.01.2022 20:02 2,1 C 1,7 C 0,6 C 94 % 1019,8 hPa 0,0 l/m 0 min 0 min 0 W/m 16,1 km/h (3 Bft) 95,83 %
06.01.2022 20:04 2,1 C 1,1 C 0,6 C 94 % 1019,8 hPa 0,0 l/m 0 min 0 min 0 W/m 9,7 km/h (2 Bft) 95,74 %
06.01.2022 20:06 2,1 C 1,1 C 0,6 C 94 % 1019,8 hPa 0,0 l/m 0 min 0 min 0 W/m 6,4 km/h (2 Bft) 93,62 %
06.01.2022 20:08 2,1 C 1,1 C 0,6 C 94 % 1019,8 hPa 0,0 l/m 0 min 0 min 0 W/m 6,4 km/h (2 Bft) 95,65 %
06.01.2022 20:10 2,1 C 1,1 C 0,6 C 94 % 1019,7 hPa 0,0 l/m 0 min 0 min 0 W/m 6,4 km/h (2 Bft) 97,87 %
06.01.2022 20:12 2,1 C 1,1 C 0,6 C 94 % 1019,7 hPa 0,0 l/m 0 min 0 min 0 W/m 6,4 km/h (2 Bft) 97,87 %
06.01.2022 20:14 2,1 C 1,1 C 0,0 C 94 % 1019,7 hPa 0,0 l/m 0 min 0 min 0 W/m 6,4 km/h (2 Bft) 97,87 %
06.01.2022 20:16 2,0 C 1,1 C 0,0 C 94 % 1019,7 hPa 0,0 l/m 0 min 0 min 0 W/m 6,4 km/h (2 Bft) 93,62 %
06.01.2022 20:18 2,0 C 1,1 C 0,0 C 94 % 1019,6 hPa 0,0 l/m 0 min 0 min 0 W/m 6,4 km/h (2 Bft) 97,87 %
06.01.2022 20:20 2,0 C 1,1 C 0,0 C 94 % 1019,6 hPa 0,0 l/m 0 min 0 min 0 W/m 12,9 km/h (3 Bft) 95,65 %
06.01.2022 20:22 1,9 C 1,1 C 0,0 C 94 % 1019,6 hPa 0,0 l/m 0 min 0 min 0 W/m 16,1 km/h (3 Bft) 93,62 %
06.01.2022 20:24 1,9 C 1,1 C 0,0 C 94 % 1019,6 hPa 0,0 l/m 0 min 0 min 0 W/m 9,7 km/h (2 Bft) 95,74 %
06.01.2022 20:26 1,9 C 1,1 C 0,0 C 94 % 1019,5 hPa 0,0 l/m 0 min 0 min 0 W/m 9,7 km/h (2 Bft) 93,62 %
06.01.2022 20:28 1,9 C 1,1 C 0,0 C 94 % 1019,5 hPa 0,0 l/m 0 min 0 min 0 W/m 12,9 km/h (3 Bft) 93,62 %
06.01.2022 20:30 1,9 C 1,1 C 0,0 C 94 % 1019,5 hPa 0,0 l/m 0 min 0 min 0 W/m 6,4 km/h (2 Bft) 95,74 %
06.01.2022 20:32 1,9 C 1,1 C 0,0 C 94 % 1019,4 hPa 0,0 l/m 0 min 0 min 0 W/m 12,9 km/h (3 Bft) 95,74 %
06.01.2022 20:34 1,9 C 1,1 C 0,0 C 94 % 1019,4 hPa 0,0 l/m 0 min 0 min 0 W/m 9,7 km/h (2 Bft) 95,74 %
06.01.2022 20:36 1,9 C 1,1 C 0,0 C 94 % 1019,3 hPa 0,0 l/m 0 min 0 min 0 W/m 12,9 km/h (3 Bft) 95,74 %
06.01.2022 20:38 1,9 C 1,1 C 0,0 C 94 % 1019,3 hPa 0,0 l/m 0 min 0 min 0 W/m 12,9 km/h (3 Bft) 93,62 %
06.01.2022 20:40 1,9 C 1,1 C 0,0 C 94 % 1019,3 hPa 0,0 l/m 0 min 0 min 0 W/m 12,9 km/h (3 Bft) 95,74 %
06.01.2022 20:42 1,9 C 1,1 C 0,0 C 94 % 1019,3 hPa 0,0 l/m 0 min 0 min 0 W/m 6,4 km/h (2 Bft) 95,65 %
06.01.2022 20:44 1,8 C 1,1 C 0,0 C 94 % 1019,3 hPa 0,0 l/m 0 min 0 min 0 W/m 12,9 km/h (3 Bft) 95,74 %
06.01.2022 20:46 1,8 C 1,1 C 0,0 C 94 % 1019,3 hPa 0,0 l/m 0 min 0 min 0 W/m 9,7 km/h (2 Bft) 93,62 %
06.01.2022 20:48 1,8 C 1,1 C 0,0 C 94 % 1019,3 hPa 0,0 l/m 0 min 0 min 0 W/m 6,4 km/h (2 Bft) 95,74 %
06.01.2022 20:50 1,8 C 1,1 C 0,0 C 94 % 1019,2 hPa 0,0 l/m 0 min 0 min 0 W/m 9,7 km/h (2 Bft) 95,74 %
06.01.2022 20:52 1,8 C 1,1 C 0,0 C 94 % 1019,2 hPa 0,0 l/m 0 min 0 min 0 W/m 12,9 km/h (3 Bft) 95,74 %
06.01.2022 20:54 1,8 C 1,1 C 0,0 C 94 % 1019,2 hPa 0,0 l/m 0 min 0 min 0 W/m 9,7 km/h (2 Bft) 93,48 %
06.01.2022 20:56 1,8 C 1,1 C 0,0 C 94 % 1019,2 hPa 0,0 l/m 0 min 0 min 0 W/m 9,7 km/h (2 Bft) 97,87 %
06.01.2022 20:58 1,8 C 1,1 C 0,0 C 94 % 1019,1 hPa 0,0 l/m 0 min 0 min 0 W/m 12,9 km/h (3 Bft) 100,00 %
06.01.2022 21:00 1,8 C 1,1 C 0,0 C 94 % 1019,1 hPa 0,0 l/m 0 min 0 min 0 W/m 12,9 km/h (3 Bft) 100,00 %
06.01.2022 21:02 1,8 C 1,1 C 0,0 C 94 % 1019,2 hPa 0,0 l/m 0 min 0 min 0 W/m 12,9 km/h (3 Bft) 97,92 %
06.01.2022 21:04 1,8 C 1,1 C 0,0 C 94 % 1019,1 hPa 0,0 l/m 0 min 0 min 0 W/m 16,1 km/h (3 Bft) 100,00 %
06.01.2022 21:06 1,8 C 1,1 C 0,0 C 94 % 1019,1 hPa 0,0 l/m 0 min 0 min 0 W/m 9,7 km/h (2 Bft) 97,83 %
06.01.2022 21:08 1,8 C 1,1 C 0,0 C 94 % 1019,1 hPa 0,0 l/m 0 min 0 min 0 W/m 6,4 km/h (2 Bft) 100,00 %
06.01.2022 21:10 1,8 C 1,1 C 0,0 C 94 % 1019,0 hPa 0,0 l/m 0 min 0 min 0 W/m 12,9 km/h (3 Bft) 100,00 %
06.01.2022 21:12 1,8 C 1,1 C 0,0 C 94 % 1019,0 hPa 0,0 l/m 0 min 0 min 0 W/m 9,7 km/h (2 Bft) 95,74 %
06.01.2022 21:14 1,8 C 1,1 C 0,0 C 94 % 1019,0 hPa 0,0 l/m 0 min 0 min 0 W/m 12,9 km/h (3 Bft) 97,87 %
06.01.2022 21:16 1,8 C 1,1 C 0,0 C 94 % 1018,9 hPa 0,0 l/m 0 min 0 min 0 W/m 12,9 km/h (3 Bft) 97,87 %
06.01.2022 21:18 1,8 C 1,1 C 0,0 C 94 % 1019,0 hPa 0,0 l/m 0 min 0 min 0 W/m 6,4 km/h (2 Bft) 97,83 %
06.01.2022 21:20 1,7 C 1,1 C 0,0 C 94 % 1018,9 hPa 0,0 l/m 0 min 0 min 0 W/m 9,7 km/h (2 Bft) 97,87 %
06.01.2022 21:22 1,8 C 1,1 C 0,0 C 94 % 1018,9 hPa 0,0 l/m 0 min 0 min 0 W/m 6,4 km/h (2 Bft) 97,87 %
06.01.2022 21:24 1,7 C 1,1 C 0,0 C 94 % 1018,9 hPa 0,0 l/m 0 min 0 min 0 W/m 9,7 km/h (2 Bft) 97,87 %
06.01.2022 21:26 1,8 C 1,1 C 0,0 C 94 % 1018,8 hPa 0,0 l/m 0 min 0 min 0 W/m 12,9 km/h (3 Bft) 97,87 %
06.01.2022 21:28 1,8 C 1,1 C 0,0 C 94 % 1018,8 hPa 0,0 l/m 0 min 0 min 0 W/m 9,7 km/h (2 Bft) 93,48 %
06.01.2022 21:30 1,8 C 1,1 C 0,6 C 94 % 1018,8 hPa 0,0 l/m 0 min 0 min 0 W/m 16,1 km/h (3 Bft) 97,87 %
06.01.2022 21:32 1,8 C 1,1 C 0,6 C 94 % 1018,8 hPa 0,0 l/m 0 min 0 min 0 W/m 19,3 km/h (3 Bft) 95,74 %
06.01.2022 21:34 1,8 C 1,1 C 0,6 C 94 % 1018,7 hPa 0,0 l/m 0 min 0 min 0 W/m 6,4 km/h (2 Bft) 97,87 %
06.01.2022 21:36 1,8 C 1,7 C 0,6 C 94 % 1018,7 hPa 0,0 l/m 0 min 0 min 0 W/m 12,9 km/h (3 Bft) 97,87 %
06.01.2022 21:38 1,8 C 1,7 C 0,6 C 93 % 1018,7 hPa 0,0 l/m 0 min 0 min 0 W/m 12,9 km/h (3 Bft) 97,87 %
06.01.2022 21:40 1,9 C 1,7 C 0,6 C 93 % 1018,7 hPa 0,0 l/m 0 min 0 min 0 W/m 16,1 km/h (3 Bft) 97,87 %
06.01.2022 21:42 1,9 C 1,7 C 0,6 C 93 % 1018,6 hPa 0,0 l/m 0 min 0 min 0 W/m 19,3 km/h (3 Bft) 100,00 %
06.01.2022 21:44 1,9 C 1,7 C 0,6 C 93 % 1018,5 hPa 0,0 l/m 0 min 0 min 0 W/m 12,9 km/h (3 Bft) 100,00 %
06.01.2022 21:46 1,9 C 1,7 C 0,6 C 93 % 1018,5 hPa 0,0 l/m 0 min 0 min 0 W/m 12,9 km/h (3 Bft) 100,00 %
06.01.2022 21:48 1,9 C 1,7 C 0,6 C 93 % 1018,5 hPa 0,0 l/m 0 min 0 min 0 W/m 9,7 km/h (2 Bft) 100,00 %
06.01.2022 21:50 1,9 C 1,7 C 0,6 C 93 % 1018,5 hPa 0,0 l/m 0 min 0 min 0 W/m 12,9 km/h (3 Bft) 100,00 %
06.01.2022 21:52 1,9 C 1,7 C 0,6 C 93 % 1018,5 hPa 0,0 l/m 0 min 0 min 0 W/m 12,9 km/h (3 Bft) 100,00 %
06.01.2022 21:54 2,0 C 1,7 C 0,6 C 93 % 1018,5 hPa 0,0 l/m 0 min 0 min 0 W/m 12,9 km/h (3 Bft) 100,00 %
06.01.2022 21:56 2,0 C 1,7 C 0,6 C 93 % 1018,5 hPa 0,0 l/m 0 min 0 min 0 W/m 12,9 km/h (3 Bft) 97,87 %
06.01.2022 21:58 2,1 C 1,7 C 0,6 C 93 % 1018,5 hPa 0,0 l/m 0 min 0 min 0 W/m 16,1 km/h (3 Bft) 100,00 %
06.01.2022 22:00 2,1 C 1,7 C 0,6 C 93 % 1018,4 hPa 0,0 l/m 0 min 0 min 0 W/m 12,9 km/h (3 Bft) 100,00 %
06.01.2022 22:02 2,1 C 1,7 C 0,6 C 93 % 1018,4 hPa 0,0 l/m 0 min 0 min 0 W/m 16,1 km/h (3 Bft) 100,00 %
06.01.2022 22:04 2,1 C 1,7 C 0,6 C 92 % 1018,4 hPa 0,0 l/m 0 min 0 min 0 W/m 9,7 km/h (2 Bft) 100,00 %
06.01.2022 22:06 2,1 C 1,7 C 0,6 C 92 % 1018,4 hPa 0,0 l/m 0 min 0 min 0 W/m 12,9 km/h (3 Bft) 100,00 %
06.01.2022 22:08 2,1 C 1,7 C 0,6 C 92 % 1018,5 hPa 0,0 l/m 0 min 0 min 0 W/m 9,7 km/h (2 Bft) 97,87 %
06.01.2022 22:10 2,1 C 1,7 C 0,6 C 92 % 1018,4 hPa 0,0 l/m 0 min 0 min 0 W/m 19,3 km/h (3 Bft) 100,00 %
06.01.2022 22:12 2,2 C 1,7 C 0,6 C 92 % 1018,4 hPa 0,0 l/m 0 min 0 min 0 W/m 6,4 km/h (2 Bft) 100,00 %
06.01.2022 22:14 2,2 C 1,7 C 0,6 C 92 % 1018,4 hPa 0,0 l/m 0 min 0 min 0 W/m 12,9 km/h (3 Bft) 100,00 %
06.01.2022 22:16 2,2 C 1,7 C 0,6 C 92 % 1018,3 hPa 0,0 l/m 0 min 0 min 0 W/m 16,1 km/h (3 Bft) 100,00 %
06.01.2022 22:18 2,2 C 1,7 C 0,6 C 92 % 1018,3 hPa 0,0 l/m 0 min 0 min 0 W/m 12,9 km/h (3 Bft) 100,00 %
06.01.2022 22:20 2,2 C 1,7 C 0,6 C 92 % 1018,3 hPa 0,0 l/m 0 min 0 min 0 W/m 12,9 km/h (3 Bft) 97,87 %
06.01.2022 22:22 2,2 C 1,7 C 0,6 C 92 % 1018,3 hPa 0,0 l/m 0 min 0 min 0 W/m 12,9 km/h (3 Bft) 100,00 %
06.01.2022 22:24 2,2 C 1,7 C 0,6 C 92 % 1018,2 hPa 0,0 l/m 0 min 0 min 0 W/m 9,7 km/h (2 Bft) 97,87 %
06.01.2022 22:26 2,2 C 1,7 C 0,6 C 91 % 1018,2 hPa 0,0 l/m 0 min 0 min 0 W/m 16,1 km/h (3 Bft) 100,00 %
06.01.2022 22:28 2,2 C 1,7 C 0,6 C 91 % 1018,2 hPa 0,0 l/m 0 min 0 min 0 W/m 12,9 km/h (3 Bft) 100,00 %
06.01.2022 22:30 2,2 C 1,7 C 0,6 C 91 % 1018,2 hPa 0,0 l/m 0 min 0 min 0 W/m 12,9 km/h (3 Bft) 100,00 %
06.01.2022 22:32 2,2 C 1,7 C 0,6 C 91 % 1018,2 hPa 0,0 l/m 0 min 0 min 0 W/m 16,1 km/h (3 Bft) 95,74 %
06.01.2022 22:34 2,2 C 1,7 C 0,6 C 91 % 1018,2 hPa 0,0 l/m 0 min 0 min 0 W/m 16,1 km/h (3 Bft) 100,00 %
06.01.2022 22:36 2,2 C 1,7 C 0,6 C 91 % 1018,1 hPa 0,0 l/m 0 min 0 min 0 W/m 12,9 km/h (3 Bft) 93,62 %
06.01.2022 22:38 2,2 C 1,7 C 0,6 C 91 % 1018,1 hPa 0,0 l/m 0 min 0 min 0 W/m 16,1 km/h (3 Bft) 97,87 %
06.01.2022 22:40 2,2 C 1,7 C 0,6 C 91 % 1018,1 hPa 0,0 l/m 0 min 0 min 0 W/m 12,9 km/h (3 Bft) 97,83 %
06.01.2022 22:42 2,2 C 1,7 C 0,6 C 91 % 1018,1 hPa 0,0 l/m 0 min 0 min 0 W/m 9,7 km/h (2 Bft) 97,87 %
06.01.2022 22:44 2,2 C 1,7 C 0,6 C 91 % 1018,1 hPa 0,0 l/m 0 min 0 min 0 W/m 12,9 km/h (3 Bft) 97,87 %
06.01.2022 22:46 2,2 C 1,7 C 0,6 C 91 % 1018,1 hPa 0,0 l/m 0 min 0 min 0 W/m 9,7 km/h (2 Bft) 97,87 %
06.01.2022 22:48 2,2 C 1,7 C 0,6 C 91 % 1018,0 hPa 0,0 l/m 0 min 0 min 0 W/m 12,9 km/h (3 Bft) 97,87 %
06.01.2022 22:50 2,2 C 1,7 C 0,6 C 91 % 1018,0 hPa 0,0 l/m 0 min 0 min 0 W/m 12,9 km/h (3 Bft) 95,74 %
06.01.2022 22:52 2,2 C 1,7 C 0,6 C 91 % 1018,0 hPa 0,0 l/m 0 min 0 min 0 W/m 6,4 km/h (2 Bft) 97,83 %
06.01.2022 22:54 2,2 C 1,7 C 0,6 C 91 % 1017,9 hPa 0,0 l/m 0 min 0 min 0 W/m 6,4 km/h (2 Bft) 95,74 %
06.01.2022 22:56 2,2 C 1,7 C 0,6 C 91 % 1018,0 hPa 0,0 l/m 0 min 0 min 0 W/m 9,7 km/h (2 Bft) 97,87 %
06.01.2022 22:58 2,2 C 1,7 C 0,6 C 91 % 1018,0 hPa 0,0 l/m 0 min 0 min 0 W/m 16,1 km/h (3 Bft) 95,74 %
06.01.2022 23:00 2,2 C 1,7 C 0,6 C 91 % 1018,0 hPa 0,0 l/m 0 min 0 min 0 W/m 19,3 km/h (3 Bft) 95,74 %
06.01.2022 23:02 2,2 C 1,7 C 0,6 C 91 % 1018,0 hPa 0,0 l/m 0 min 0 min 0 W/m 12,9 km/h (3 Bft) 97,92 %
06.01.2022 23:04 2,2 C 1,7 C 0,6 C 91 % 1018,0 hPa 0,0 l/m 0 min 0 min 0 W/m 6,4 km/h (2 Bft) 97,83 %
06.01.2022 23:06 2,2 C 1,7 C 0,6 C 91 % 1018,0 hPa 0,0 l/m 0 min 0 min 0 W/m 6,4 km/h (2 Bft) 95,74 %
06.01.2022 23:08 2,2 C 1,7 C 0,6 C 91 % 1018,0 hPa 0,0 l/m 0 min 0 min 0 W/m 6,4 km/h (2 Bft) 93,62 %
06.01.2022 23:10 2,1 C 1,7 C 0,6 C 91 % 1017,9 hPa 0,0 l/m 0 min 0 min 0 W/m 12,9 km/h (3 Bft) 91,49 %
06.01.2022 23:12 2,1 C 1,1 C 0,6 C 91 % 1017,9 hPa 0,0 l/m 0 min 0 min 0 W/m 12,9 km/h (3 Bft) 93,62 %
06.01.2022 23:14 2,1 C 1,1 C 0,6 C 91 % 1017,9 hPa 0,0 l/m 0 min 0 min 0 W/m 6,4 km/h (2 Bft) 91,30 %
06.01.2022 23:16 2,1 C 1,1 C 0,6 C 91 % 1017,9 hPa 0,0 l/m 0 min 0 min 0 W/m 6,4 km/h (2 Bft) 95,74 %
06.01.2022 23:18 2,1 C 1,1 C 0,6 C 90 % 1018,0 hPa 0,0 l/m 0 min 0 min 0 W/m 9,7 km/h (2 Bft) 95,74 %
06.01.2022 23:20 2,1 C 1,1 C 0,6 C 90 % 1018,0 hPa 0,0 l/m 0 min 0 min 0 W/m 9,7 km/h (2 Bft) 95,74 %
06.01.2022 23:22 2,1 C 1,1 C 0,6 C 90 % 1017,9 hPa 0,0 l/m 0 min 0 min 0 W/m 12,9 km/h (3 Bft) 93,62 %
06.01.2022 23:24 2,1 C 1,1 C 0,0 C 90 % 1017,9 hPa 0,0 l/m 0 min 0 min 0 W/m 12,9 km/h (3 Bft) 95,74 %
06.01.2022 23:26 2,1 C 1,1 C 0,6 C 90 % 1017,9 hPa 0,0 l/m 0 min 0 min 0 W/m 16,1 km/h (3 Bft) 93,48 %
06.01.2022 23:28 2,1 C 1,1 C 0,6 C 90 % 1017,9 hPa 0,0 l/m 0 min 0 min 0 W/m 16,1 km/h (3 Bft) 93,62 %
06.01.2022 23:30 2,1 C 1,1 C 0,0 C 90 % 1017,9 hPa 0,0 l/m 0 min 0 min 0 W/m 12,9 km/h (3 Bft) 95,74 %
06.01.2022 23:32 2,1 C 1,1 C 0,6 C 90 % 1017,9 hPa 0,0 l/m 0 min 0 min 0 W/m 12,9 km/h (3 Bft) 91,67 %
06.01.2022 23:34 2,1 C 1,1 C 0,6 C 90 % 1017,8 hPa 0,0 l/m 0 min 0 min 0 W/m 12,9 km/h (3 Bft) 55,32 %
06.01.2022 23:36 2,1 C 1,1 C 0,6 C 90 % 1017,8 hPa 0,0 l/m 0 min 0 min 0 W/m 16,1 km/h (3 Bft) 92,68 %
06.01.2022 23:38 2,1 C 1,1 C 0,0 C 90 % 1017,8 hPa 0,0 l/m 0 min 0 min 0 W/m 6,4 km/h (2 Bft) 97,87 %
06.01.2022 23:40 2,1 C 1,1 C 0,0 C 90 % 1017,8 hPa 0,0 l/m 0 min 0 min 0 W/m 19,3 km/h (3 Bft) 95,74 %
06.01.2022 23:42 2,0 C 1,1 C 0,0 C 90 % 1017,8 hPa 0,0 l/m 0 min 0 min 0 W/m 16,1 km/h (3 Bft) 97,83 %
06.01.2022 23:44 2,0 C 1,1 C 0,0 C 90 % 1017,8 hPa 0,0 l/m 0 min 0 min 0 W/m 16,1 km/h (3 Bft) 97,87 %
06.01.2022 23:46 2,0 C 1,7 C 0,0 C 90 % 1017,7 hPa 0,0 l/m 0 min 0 min 0 W/m 16,1 km/h (3 Bft) 95,74 %
06.01.2022 23:48 2,0 C 1,7 C 0,0 C 90 % 1017,7 hPa 0,0 l/m 0 min 0 min 0 W/m 12,9 km/h (3 Bft) 97,87 %
06.01.2022 23:50 2,0 C 1,7 C 0,0 C 90 % 1017,7 hPa 0,0 l/m 0 min 0 min 0 W/m 12,9 km/h (3 Bft) 97,87 %
06.01.2022 23:52 2,0 C 1,7 C 0,0 C 90 % 1017,7 hPa 0,0 l/m 0 min 0 min 0 W/m 16,1 km/h (3 Bft) 95,74 %
06.01.2022 23:54 2,0 C 1,7 C 0,0 C 90 % 1017,7 hPa 0,0 l/m 0 min 0 min 0 W/m 16,1 km/h (3 Bft) 97,83 %
06.01.2022 23:56 2,0 C 1,7 C 0,6 C 90 % 1017,7 hPa 0,0 l/m 0 min 0 min 0 W/m 12,9 km/h (3 Bft) 97,87 %
06.01.2022 23:58 2,0 C 1,7 C 0,6 C 90 % 1017,7 hPa 0,0 l/m 0 min 0 min 0 W/m 16,1 km/h (3 Bft) 97,87 %
_ Min-Zeit 08:44 06:56 07:50 15:26 00:02 - - - - 08:38 00:02
Minimum _ 0,6 C 0,0 C -1,1 C 88 % 1014,1 hPa - - - - 0,0 km/h (0 Bft) 11,11 %
_ Max-Zeit 15:16 12:52 14:20 00:52 11:10 04:14 10:14 00:00 12:52 15:48 00:28
Maximum _ 5,9 C 10,6 C 3,9 C 98 % 1020,2 hPa 0,2 l/m 2 min 0 min 288 W/m 25,7 km/h
S-SO (4 Bft)
100,00 %
Durchschnitt _ 2,7 C 2,3 C 0,9 C 95 % 1018,4 hPa #0,2 l/m #2:00 h #0 min. 90 W/m 7,8 km/h (2 Bft) 97,13 %
© 2022 W. Hausmann